<?xml version="1.0" encoding="UTF-8" standalone="no" ?>
<gpx xmlns="http://www.topografix.com/GPX/1/1" xmlns:xsi="http://www.w3.org/2001/XMLSchema-instance" xsi:schemaLocation="http://www.topografix.com/GPX/1/1 http://www.topografix.com/GPX/1/1/gpx.xsd" version="1.1" creator="VisuGPX - https://www.visugpx.com">
  <metadata>
    <name>Bonneval-sur-Arc, l'Écot, Trièves</name>
    <desc><![CDATA[Départ des pistes de ski par la route de l'Écot, rive gauche de l'Arc pour éviter les pentes raides du Clapier de Fondan (wpt 1) et de Sur la Barme (wpt 2) ; cheminements sur la rive gauche de l'Arc ; pont de la Lama pour cheminer sur la rive droite de l'Arc, montée à l'Écot et pique-nique aux Vaillettes ; tour de la Tronna et retour par la route.
Temps merveilleux, les montagnes qui nous étaient cachées sont revenues.
Déambulation dans Bonneval-sur-Arc et son mètre de neige tassée dans ses ruelles.]]></desc>
  </metadata>
  <wpt lat="45.37587" lon="7.06818">
    <ele>1951</ele>
    <name><![CDATA[1 Avalanches possibles]]></name>
  </wpt>
  <wpt lat="45.37792" lon="7.07707">
    <ele>2002</ele>
    <name><![CDATA[2 Avalanches possibles]]></name>
  </wpt>
  <trk>
    <name><![CDATA[20180321193809-dXUnD]]></name>
    <trkseg>
      <trkpt lat="45.374" lon="7.0577">
        <ele>1830</ele>
        <time>2018-03-14T09:04:45Z</time>
      </trkpt>
      <trkpt lat="45.37401" lon="7.05759">
        <ele>1829</ele>
        <time>2018-03-14T09:06:24Z</time>
      </trkpt>
      <trkpt lat="45.37398" lon="7.05758">
        <ele>1829</ele>
        <time>2018-03-14T09:07:02Z</time>
      </trkpt>
      <trkpt lat="45.37399" lon="7.05756">
        <ele>1829</ele>
        <time>2018-03-14T09:07:38Z</time>
      </trkpt>
      <trkpt lat="45.37398" lon="7.05754">
        <ele>1829</ele>
        <time>2018-03-14T09:08:03Z</time>
      </trkpt>
      <trkpt lat="45.37397" lon="7.05759">
        <ele>1829</ele>
        <time>2018-03-14T09:08:20Z</time>
      </trkpt>
      <trkpt lat="45.37403" lon="7.05783">
        <ele>1831</ele>
        <time>2018-03-14T09:08:38Z</time>
      </trkpt>
      <trkpt lat="45.37402" lon="7.05787">
        <ele>1831</ele>
        <time>2018-03-14T09:09:19Z</time>
      </trkpt>
      <trkpt lat="45.37403" lon="7.05787">
        <ele>1831</ele>
        <time>2018-03-14T09:10:01Z</time>
      </trkpt>
      <trkpt lat="45.37404" lon="7.05804">
        <ele>1831</ele>
        <time>2018-03-14T09:11:07Z</time>
      </trkpt>
      <trkpt lat="45.374" lon="7.05827">
        <ele>1831</ele>
        <time>2018-03-14T09:11:28Z</time>
      </trkpt>
      <trkpt lat="45.374" lon="7.05851">
        <ele>1834</ele>
        <time>2018-03-14T09:11:49Z</time>
      </trkpt>
      <trkpt lat="45.374" lon="7.05867">
        <ele>1835</ele>
        <time>2018-03-14T09:12:01Z</time>
      </trkpt>
      <trkpt lat="45.37399" lon="7.05886">
        <ele>1835</ele>
        <time>2018-03-14T09:12:20Z</time>
      </trkpt>
      <trkpt lat="45.37398" lon="7.05906">
        <ele>1834</ele>
        <time>2018-03-14T09:12:38Z</time>
      </trkpt>
      <trkpt lat="45.374" lon="7.05912">
        <ele>1834</ele>
        <time>2018-03-14T09:12:47Z</time>
      </trkpt>
      <trkpt lat="45.37402" lon="7.0594">
        <ele>1835</ele>
        <time>2018-03-14T09:13:01Z</time>
      </trkpt>
      <trkpt lat="45.37401" lon="7.05968">
        <ele>1836</ele>
        <time>2018-03-14T09:13:21Z</time>
      </trkpt>
      <trkpt lat="45.37397" lon="7.05989">
        <ele>1835</ele>
        <time>2018-03-14T09:13:38Z</time>
      </trkpt>
      <trkpt lat="45.37394" lon="7.06011">
        <ele>1835</ele>
        <time>2018-03-14T09:13:52Z</time>
      </trkpt>
      <trkpt lat="45.37391" lon="7.06035">
        <ele>1837</ele>
        <time>2018-03-14T09:14:12Z</time>
      </trkpt>
      <trkpt lat="45.37391" lon="7.06049">
        <ele>1837</ele>
        <time>2018-03-14T09:14:29Z</time>
      </trkpt>
      <trkpt lat="45.37389" lon="7.06059">
        <ele>1837</ele>
        <time>2018-03-14T09:14:39Z</time>
      </trkpt>
      <trkpt lat="45.37392" lon="7.06079">
        <ele>1836</ele>
        <time>2018-03-14T09:14:57Z</time>
      </trkpt>
      <trkpt lat="45.37393" lon="7.06086">
        <ele>1835</ele>
        <time>2018-03-14T09:15:13Z</time>
      </trkpt>
      <trkpt lat="45.37393" lon="7.0609">
        <ele>1835</ele>
        <time>2018-03-14T09:15:16Z</time>
      </trkpt>
      <trkpt lat="45.3739" lon="7.06112">
        <ele>1836</ele>
        <time>2018-03-14T09:15:32Z</time>
      </trkpt>
      <trkpt lat="45.37381" lon="7.06133">
        <ele>1837</ele>
        <time>2018-03-14T09:15:49Z</time>
      </trkpt>
      <trkpt lat="45.37372" lon="7.06154">
        <ele>1838</ele>
        <time>2018-03-14T09:16:06Z</time>
      </trkpt>
      <trkpt lat="45.37372" lon="7.06155">
        <ele>1838</ele>
        <time>2018-03-14T09:16:07Z</time>
      </trkpt>
      <trkpt lat="45.37371" lon="7.06159">
        <ele>1838</ele>
        <time>2018-03-14T09:16:10Z</time>
      </trkpt>
      <trkpt lat="45.37362" lon="7.0618">
        <ele>1838</ele>
        <time>2018-03-14T09:16:28Z</time>
      </trkpt>
      <trkpt lat="45.37357" lon="7.06195">
        <ele>1838</ele>
        <time>2018-03-14T09:16:43Z</time>
      </trkpt>
      <trkpt lat="45.37353" lon="7.06223">
        <ele>1838</ele>
        <time>2018-03-14T09:17:02Z</time>
      </trkpt>
      <trkpt lat="45.37357" lon="7.06248">
        <ele>1838</ele>
        <time>2018-03-14T09:17:20Z</time>
      </trkpt>
      <trkpt lat="45.37361" lon="7.06252">
        <ele>1838</ele>
        <time>2018-03-14T09:17:25Z</time>
      </trkpt>
      <trkpt lat="45.37377" lon="7.06278">
        <ele>1837</ele>
        <time>2018-03-14T09:17:44Z</time>
      </trkpt>
      <trkpt lat="45.37377" lon="7.06279">
        <ele>1837</ele>
        <time>2018-03-14T09:17:45Z</time>
      </trkpt>
      <trkpt lat="45.37376" lon="7.06295">
        <ele>1838</ele>
        <time>2018-03-14T09:18:02Z</time>
      </trkpt>
      <trkpt lat="45.37367" lon="7.06309">
        <ele>1838</ele>
        <time>2018-03-14T09:18:19Z</time>
      </trkpt>
      <trkpt lat="45.37363" lon="7.06319">
        <ele>1838</ele>
        <time>2018-03-14T09:18:35Z</time>
      </trkpt>
      <trkpt lat="45.37359" lon="7.06325">
        <ele>1839</ele>
        <time>2018-03-14T09:19:10Z</time>
      </trkpt>
      <trkpt lat="45.37351" lon="7.06345">
        <ele>1841</ele>
        <time>2018-03-14T09:19:26Z</time>
      </trkpt>
      <trkpt lat="45.37347" lon="7.06356">
        <ele>1841</ele>
        <time>2018-03-14T09:19:44Z</time>
      </trkpt>
      <trkpt lat="45.37346" lon="7.06356">
        <ele>1841</ele>
        <time>2018-03-14T09:21:14Z</time>
      </trkpt>
      <trkpt lat="45.37345" lon="7.06358">
        <ele>1841</ele>
        <time>2018-03-14T09:22:10Z</time>
      </trkpt>
      <trkpt lat="45.37339" lon="7.06381">
        <ele>1841</ele>
        <time>2018-03-14T09:22:25Z</time>
      </trkpt>
      <trkpt lat="45.37335" lon="7.06396">
        <ele>1841</ele>
        <time>2018-03-14T09:22:40Z</time>
      </trkpt>
      <trkpt lat="45.3733" lon="7.06419">
        <ele>1843</ele>
        <time>2018-03-14T09:22:59Z</time>
      </trkpt>
      <trkpt lat="45.37322" lon="7.06433">
        <ele>1849</ele>
        <time>2018-03-14T09:23:15Z</time>
      </trkpt>
      <trkpt lat="45.37321" lon="7.06433">
        <ele>1849</ele>
        <time>2018-03-14T09:23:16Z</time>
      </trkpt>
      <trkpt lat="45.37317" lon="7.0644">
        <ele>1850</ele>
        <time>2018-03-14T09:23:36Z</time>
      </trkpt>
      <trkpt lat="45.37317" lon="7.06445">
        <ele>1851</ele>
        <time>2018-03-14T09:24:20Z</time>
      </trkpt>
      <trkpt lat="45.37313" lon="7.06466">
        <ele>1852</ele>
        <time>2018-03-14T09:25:01Z</time>
      </trkpt>
      <trkpt lat="45.37309" lon="7.06502">
        <ele>1853</ele>
        <time>2018-03-14T09:25:17Z</time>
      </trkpt>
      <trkpt lat="45.37308" lon="7.06509">
        <ele>1854</ele>
        <time>2018-03-14T09:25:21Z</time>
      </trkpt>
      <trkpt lat="45.37309" lon="7.06532">
        <ele>1855</ele>
        <time>2018-03-14T09:25:36Z</time>
      </trkpt>
      <trkpt lat="45.37314" lon="7.06556">
        <ele>1856</ele>
        <time>2018-03-14T09:25:54Z</time>
      </trkpt>
      <trkpt lat="45.37319" lon="7.06579">
        <ele>1854</ele>
        <time>2018-03-14T09:26:12Z</time>
      </trkpt>
      <trkpt lat="45.37326" lon="7.06611">
        <ele>1859</ele>
        <time>2018-03-14T09:26:29Z</time>
      </trkpt>
      <trkpt lat="45.37328" lon="7.06638">
        <ele>1861</ele>
        <time>2018-03-14T09:26:47Z</time>
      </trkpt>
      <trkpt lat="45.37327" lon="7.06643">
        <ele>1861</ele>
        <time>2018-03-14T09:27:10Z</time>
      </trkpt>
      <trkpt lat="45.37327" lon="7.06646">
        <ele>1861</ele>
        <time>2018-03-14T09:28:03Z</time>
      </trkpt>
      <trkpt lat="45.37326" lon="7.06645">
        <ele>1861</ele>
        <time>2018-03-14T09:29:21Z</time>
      </trkpt>
      <trkpt lat="45.37329" lon="7.06647">
        <ele>1861</ele>
        <time>2018-03-14T09:29:48Z</time>
      </trkpt>
      <trkpt lat="45.3733" lon="7.06646">
        <ele>1861</ele>
        <time>2018-03-14T09:30:19Z</time>
      </trkpt>
      <trkpt lat="45.37329" lon="7.06648">
        <ele>1861</ele>
        <time>2018-03-14T09:30:55Z</time>
      </trkpt>
      <trkpt lat="45.37334" lon="7.06664">
        <ele>1858</ele>
        <time>2018-03-14T09:31:15Z</time>
      </trkpt>
      <trkpt lat="45.37336" lon="7.06683">
        <ele>1861</ele>
        <time>2018-03-14T09:31:33Z</time>
      </trkpt>
      <trkpt lat="45.37335" lon="7.06696">
        <ele>1863</ele>
        <time>2018-03-14T09:31:47Z</time>
      </trkpt>
      <trkpt lat="45.37336" lon="7.06711">
        <ele>1864</ele>
        <time>2018-03-14T09:32:05Z</time>
      </trkpt>
      <trkpt lat="45.37335" lon="7.06724">
        <ele>1863</ele>
        <time>2018-03-14T09:32:17Z</time>
      </trkpt>
      <trkpt lat="45.37334" lon="7.06732">
        <ele>1863</ele>
        <time>2018-03-14T09:32:25Z</time>
      </trkpt>
      <trkpt lat="45.37334" lon="7.06757">
        <ele>1863</ele>
        <time>2018-03-14T09:32:44Z</time>
      </trkpt>
      <trkpt lat="45.37333" lon="7.06764">
        <ele>1866</ele>
        <time>2018-03-14T09:33:00Z</time>
      </trkpt>
      <trkpt lat="45.37333" lon="7.06764">
        <ele>1866</ele>
        <time>2018-03-14T09:33:31Z</time>
      </trkpt>
      <trkpt lat="45.37332" lon="7.06777">
        <ele>1868</ele>
        <time>2018-03-14T09:33:55Z</time>
      </trkpt>
      <trkpt lat="45.37332" lon="7.06796">
        <ele>1869</ele>
        <time>2018-03-14T09:34:13Z</time>
      </trkpt>
      <trkpt lat="45.37335" lon="7.06809">
        <ele>1866</ele>
        <time>2018-03-14T09:34:28Z</time>
      </trkpt>
      <trkpt lat="45.37335" lon="7.0681">
        <ele>1866</ele>
        <time>2018-03-14T09:35:19Z</time>
      </trkpt>
      <trkpt lat="45.37336" lon="7.06815">
        <ele>1866</ele>
        <time>2018-03-14T09:35:23Z</time>
      </trkpt>
      <trkpt lat="45.37341" lon="7.06824">
        <ele>1866</ele>
        <time>2018-03-14T09:35:29Z</time>
      </trkpt>
      <trkpt lat="45.37351" lon="7.06853">
        <ele>1866</ele>
        <time>2018-03-14T09:35:47Z</time>
      </trkpt>
      <trkpt lat="45.37351" lon="7.06865">
        <ele>1866</ele>
        <time>2018-03-14T09:35:56Z</time>
      </trkpt>
      <trkpt lat="45.37357" lon="7.06884">
        <ele>1867</ele>
        <time>2018-03-14T09:36:11Z</time>
      </trkpt>
      <trkpt lat="45.37357" lon="7.06905">
        <ele>1866</ele>
        <time>2018-03-14T09:36:26Z</time>
      </trkpt>
      <trkpt lat="45.37358" lon="7.06919">
        <ele>1866</ele>
        <time>2018-03-14T09:36:38Z</time>
      </trkpt>
      <trkpt lat="45.3736" lon="7.06929">
        <ele>1866</ele>
        <time>2018-03-14T09:36:45Z</time>
      </trkpt>
      <trkpt lat="45.37362" lon="7.06936">
        <ele>1866</ele>
        <time>2018-03-14T09:36:50Z</time>
      </trkpt>
      <trkpt lat="45.37361" lon="7.06943">
        <ele>1866</ele>
        <time>2018-03-14T09:36:54Z</time>
      </trkpt>
      <trkpt lat="45.3736" lon="7.06947">
        <ele>1866</ele>
        <time>2018-03-14T09:36:58Z</time>
      </trkpt>
      <trkpt lat="45.37362" lon="7.06954">
        <ele>1867</ele>
        <time>2018-03-14T09:37:16Z</time>
      </trkpt>
      <trkpt lat="45.37363" lon="7.06955">
        <ele>1867</ele>
        <time>2018-03-14T09:37:17Z</time>
      </trkpt>
      <trkpt lat="45.37364" lon="7.06959">
        <ele>1867</ele>
        <time>2018-03-14T09:37:19Z</time>
      </trkpt>
      <trkpt lat="45.3737" lon="7.06979">
        <ele>1867</ele>
        <time>2018-03-14T09:37:33Z</time>
      </trkpt>
      <trkpt lat="45.37371" lon="7.06985">
        <ele>1867</ele>
        <time>2018-03-14T09:37:36Z</time>
      </trkpt>
      <trkpt lat="45.37373" lon="7.06989">
        <ele>1867</ele>
        <time>2018-03-14T09:37:39Z</time>
      </trkpt>
      <trkpt lat="45.37376" lon="7.07003">
        <ele>1867</ele>
        <time>2018-03-14T09:37:51Z</time>
      </trkpt>
      <trkpt lat="45.37378" lon="7.07025">
        <ele>1867</ele>
        <time>2018-03-14T09:38:07Z</time>
      </trkpt>
      <trkpt lat="45.37384" lon="7.07047">
        <ele>1866</ele>
        <time>2018-03-14T09:38:24Z</time>
      </trkpt>
      <trkpt lat="45.3739" lon="7.07065">
        <ele>1866</ele>
        <time>2018-03-14T09:38:39Z</time>
      </trkpt>
      <trkpt lat="45.37398" lon="7.07076">
        <ele>1865</ele>
        <time>2018-03-14T09:38:58Z</time>
      </trkpt>
      <trkpt lat="45.37402" lon="7.07083">
        <ele>1865</ele>
        <time>2018-03-14T09:39:15Z</time>
      </trkpt>
      <trkpt lat="45.374" lon="7.07093">
        <ele>1866</ele>
        <time>2018-03-14T09:39:42Z</time>
      </trkpt>
      <trkpt lat="45.37399" lon="7.07099">
        <ele>1866</ele>
        <time>2018-03-14T09:39:49Z</time>
      </trkpt>
      <trkpt lat="45.37399" lon="7.07103">
        <ele>1866</ele>
        <time>2018-03-14T09:39:51Z</time>
      </trkpt>
      <trkpt lat="45.374" lon="7.07114">
        <ele>1866</ele>
        <time>2018-03-14T09:40:00Z</time>
      </trkpt>
      <trkpt lat="45.37398" lon="7.07135">
        <ele>1866</ele>
        <time>2018-03-14T09:40:16Z</time>
      </trkpt>
      <trkpt lat="45.37392" lon="7.07149">
        <ele>1867</ele>
        <time>2018-03-14T09:40:33Z</time>
      </trkpt>
      <trkpt lat="45.37387" lon="7.07165">
        <ele>1867</ele>
        <time>2018-03-14T09:40:53Z</time>
      </trkpt>
      <trkpt lat="45.37392" lon="7.07168">
        <ele>1867</ele>
        <time>2018-03-14T09:41:14Z</time>
      </trkpt>
      <trkpt lat="45.37394" lon="7.07185">
        <ele>1867</ele>
        <time>2018-03-14T09:41:49Z</time>
      </trkpt>
      <trkpt lat="45.374" lon="7.0721">
        <ele>1866</ele>
        <time>2018-03-14T09:42:08Z</time>
      </trkpt>
      <trkpt lat="45.37406" lon="7.07226">
        <ele>1865</ele>
        <time>2018-03-14T09:42:24Z</time>
      </trkpt>
      <trkpt lat="45.37407" lon="7.07241">
        <ele>1864</ele>
        <time>2018-03-14T09:42:38Z</time>
      </trkpt>
      <trkpt lat="45.37407" lon="7.07246">
        <ele>1864</ele>
        <time>2018-03-14T09:42:42Z</time>
      </trkpt>
      <trkpt lat="45.37412" lon="7.07258">
        <ele>1864</ele>
        <time>2018-03-14T09:42:52Z</time>
      </trkpt>
      <trkpt lat="45.3742" lon="7.07284">
        <ele>1867</ele>
        <time>2018-03-14T09:43:11Z</time>
      </trkpt>
      <trkpt lat="45.37423" lon="7.07295">
        <ele>1868</ele>
        <time>2018-03-14T09:43:19Z</time>
      </trkpt>
      <trkpt lat="45.37425" lon="7.07302">
        <ele>1868</ele>
        <time>2018-03-14T09:43:24Z</time>
      </trkpt>
      <trkpt lat="45.37433" lon="7.07325">
        <ele>1868</ele>
        <time>2018-03-14T09:43:42Z</time>
      </trkpt>
      <trkpt lat="45.3744" lon="7.07344">
        <ele>1870</ele>
        <time>2018-03-14T09:43:56Z</time>
      </trkpt>
      <trkpt lat="45.37441" lon="7.0735">
        <ele>1870</ele>
        <time>2018-03-14T09:44:01Z</time>
      </trkpt>
      <trkpt lat="45.3744" lon="7.07355">
        <ele>1870</ele>
        <time>2018-03-14T09:44:06Z</time>
      </trkpt>
      <trkpt lat="45.37444" lon="7.07368">
        <ele>1871</ele>
        <time>2018-03-14T09:44:17Z</time>
      </trkpt>
      <trkpt lat="45.37448" lon="7.07387">
        <ele>1871</ele>
        <time>2018-03-14T09:44:30Z</time>
      </trkpt>
      <trkpt lat="45.37454" lon="7.07411">
        <ele>1871</ele>
        <time>2018-03-14T09:44:49Z</time>
      </trkpt>
      <trkpt lat="45.37458" lon="7.07422">
        <ele>1872</ele>
        <time>2018-03-14T09:45:06Z</time>
      </trkpt>
      <trkpt lat="45.3746" lon="7.0743">
        <ele>1872</ele>
        <time>2018-03-14T09:45:22Z</time>
      </trkpt>
      <trkpt lat="45.37461" lon="7.07434">
        <ele>1872</ele>
        <time>2018-03-14T09:45:43Z</time>
      </trkpt>
      <trkpt lat="45.3746" lon="7.07433">
        <ele>1872</ele>
        <time>2018-03-14T09:46:22Z</time>
      </trkpt>
      <trkpt lat="45.37462" lon="7.07434">
        <ele>1872</ele>
        <time>2018-03-14T09:47:42Z</time>
      </trkpt>
      <trkpt lat="45.37462" lon="7.07435">
        <ele>1872</ele>
        <time>2018-03-14T09:48:08Z</time>
      </trkpt>
      <trkpt lat="45.37462" lon="7.07436">
        <ele>1872</ele>
        <time>2018-03-14T09:48:58Z</time>
      </trkpt>
      <trkpt lat="45.37464" lon="7.07442">
        <ele>1872</ele>
        <time>2018-03-14T09:49:45Z</time>
      </trkpt>
      <trkpt lat="45.37467" lon="7.0745">
        <ele>1872</ele>
        <time>2018-03-14T09:49:53Z</time>
      </trkpt>
      <trkpt lat="45.37469" lon="7.07454">
        <ele>1872</ele>
        <time>2018-03-14T09:49:56Z</time>
      </trkpt>
      <trkpt lat="45.37469" lon="7.07456">
        <ele>1873</ele>
        <time>2018-03-14T09:49:58Z</time>
      </trkpt>
      <trkpt lat="45.37471" lon="7.07472">
        <ele>1873</ele>
        <time>2018-03-14T09:50:13Z</time>
      </trkpt>
      <trkpt lat="45.37476" lon="7.07487">
        <ele>1873</ele>
        <time>2018-03-14T09:50:31Z</time>
      </trkpt>
      <trkpt lat="45.37482" lon="7.07506">
        <ele>1876</ele>
        <time>2018-03-14T09:50:46Z</time>
      </trkpt>
      <trkpt lat="45.37481" lon="7.07511">
        <ele>1877</ele>
        <time>2018-03-14T09:50:50Z</time>
      </trkpt>
      <trkpt lat="45.3748" lon="7.07526">
        <ele>1878</ele>
        <time>2018-03-14T09:51:04Z</time>
      </trkpt>
      <trkpt lat="45.37481" lon="7.07533">
        <ele>1878</ele>
        <time>2018-03-14T09:51:10Z</time>
      </trkpt>
      <trkpt lat="45.37484" lon="7.07544">
        <ele>1879</ele>
        <time>2018-03-14T09:51:19Z</time>
      </trkpt>
      <trkpt lat="45.37483" lon="7.07547">
        <ele>1880</ele>
        <time>2018-03-14T09:51:21Z</time>
      </trkpt>
      <trkpt lat="45.37485" lon="7.07558">
        <ele>1880</ele>
        <time>2018-03-14T09:51:30Z</time>
      </trkpt>
      <trkpt lat="45.37486" lon="7.0756">
        <ele>1880</ele>
        <time>2018-03-14T09:51:32Z</time>
      </trkpt>
      <trkpt lat="45.37489" lon="7.07569">
        <ele>1881</ele>
        <time>2018-03-14T09:51:39Z</time>
      </trkpt>
      <trkpt lat="45.37491" lon="7.07579">
        <ele>1882</ele>
        <time>2018-03-14T09:51:48Z</time>
      </trkpt>
      <trkpt lat="45.37494" lon="7.07588">
        <ele>1885</ele>
        <time>2018-03-14T09:51:56Z</time>
      </trkpt>
      <trkpt lat="45.37498" lon="7.07606">
        <ele>1887</ele>
        <time>2018-03-14T09:52:13Z</time>
      </trkpt>
      <trkpt lat="45.37501" lon="7.07612">
        <ele>1885</ele>
        <time>2018-03-14T09:52:21Z</time>
      </trkpt>
      <trkpt lat="45.37505" lon="7.07621">
        <ele>1886</ele>
        <time>2018-03-14T09:52:39Z</time>
      </trkpt>
      <trkpt lat="45.37509" lon="7.07632">
        <ele>1886</ele>
        <time>2018-03-14T09:53:01Z</time>
      </trkpt>
      <trkpt lat="45.37506" lon="7.07638">
        <ele>1887</ele>
        <time>2018-03-14T09:53:20Z</time>
      </trkpt>
      <trkpt lat="45.3751" lon="7.07659">
        <ele>1888</ele>
        <time>2018-03-14T09:53:37Z</time>
      </trkpt>
      <trkpt lat="45.37515" lon="7.07678">
        <ele>1891</ele>
        <time>2018-03-14T09:53:51Z</time>
      </trkpt>
      <trkpt lat="45.37519" lon="7.07689">
        <ele>1892</ele>
        <time>2018-03-14T09:54:00Z</time>
      </trkpt>
      <trkpt lat="45.37524" lon="7.07695">
        <ele>1892</ele>
        <time>2018-03-14T09:54:06Z</time>
      </trkpt>
      <trkpt lat="45.3753" lon="7.07714">
        <ele>1893</ele>
        <time>2018-03-14T09:54:26Z</time>
      </trkpt>
      <trkpt lat="45.37534" lon="7.07731">
        <ele>1894</ele>
        <time>2018-03-14T09:54:43Z</time>
      </trkpt>
      <trkpt lat="45.37535" lon="7.07732">
        <ele>1894</ele>
        <time>2018-03-14T09:54:44Z</time>
      </trkpt>
      <trkpt lat="45.37544" lon="7.07749">
        <ele>1894</ele>
        <time>2018-03-14T09:55:01Z</time>
      </trkpt>
      <trkpt lat="45.37546" lon="7.07763">
        <ele>1901</ele>
        <time>2018-03-14T09:55:15Z</time>
      </trkpt>
      <trkpt lat="45.37552" lon="7.07778">
        <ele>1901</ele>
        <time>2018-03-14T09:55:32Z</time>
      </trkpt>
      <trkpt lat="45.37557" lon="7.07798">
        <ele>1902</ele>
        <time>2018-03-14T09:55:54Z</time>
      </trkpt>
      <trkpt lat="45.37558" lon="7.07809">
        <ele>1902</ele>
        <time>2018-03-14T09:56:11Z</time>
      </trkpt>
      <trkpt lat="45.37563" lon="7.0782">
        <ele>1902</ele>
        <time>2018-03-14T09:56:39Z</time>
      </trkpt>
      <trkpt lat="45.37565" lon="7.07833">
        <ele>1902</ele>
        <time>2018-03-14T09:56:57Z</time>
      </trkpt>
      <trkpt lat="45.37566" lon="7.07837">
        <ele>1907</ele>
        <time>2018-03-14T09:57:03Z</time>
      </trkpt>
      <trkpt lat="45.37565" lon="7.07849">
        <ele>1908</ele>
        <time>2018-03-14T09:57:16Z</time>
      </trkpt>
      <trkpt lat="45.37565" lon="7.07865">
        <ele>1910</ele>
        <time>2018-03-14T09:57:36Z</time>
      </trkpt>
      <trkpt lat="45.37564" lon="7.07874">
        <ele>1911</ele>
        <time>2018-03-14T09:57:46Z</time>
      </trkpt>
      <trkpt lat="45.37567" lon="7.07888">
        <ele>1912</ele>
        <time>2018-03-14T09:58:03Z</time>
      </trkpt>
      <trkpt lat="45.37576" lon="7.07904">
        <ele>1913</ele>
        <time>2018-03-14T09:58:23Z</time>
      </trkpt>
      <trkpt lat="45.3758" lon="7.07917">
        <ele>1914</ele>
        <time>2018-03-14T09:58:41Z</time>
      </trkpt>
      <trkpt lat="45.37588" lon="7.07933">
        <ele>1917</ele>
        <time>2018-03-14T09:59:02Z</time>
      </trkpt>
      <trkpt lat="45.37591" lon="7.07935">
        <ele>1918</ele>
        <time>2018-03-14T09:59:22Z</time>
      </trkpt>
      <trkpt lat="45.37593" lon="7.07944">
        <ele>1919</ele>
        <time>2018-03-14T09:59:55Z</time>
      </trkpt>
      <trkpt lat="45.37596" lon="7.07947">
        <ele>1919</ele>
        <time>2018-03-14T09:59:58Z</time>
      </trkpt>
      <trkpt lat="45.37597" lon="7.07948">
        <ele>1919</ele>
        <time>2018-03-14T10:00:01Z</time>
      </trkpt>
      <trkpt lat="45.37604" lon="7.07963">
        <ele>1921</ele>
        <time>2018-03-14T10:00:13Z</time>
      </trkpt>
      <trkpt lat="45.37608" lon="7.07983">
        <ele>1922</ele>
        <time>2018-03-14T10:00:30Z</time>
      </trkpt>
      <trkpt lat="45.37609" lon="7.07991">
        <ele>1923</ele>
        <time>2018-03-14T10:00:39Z</time>
      </trkpt>
      <trkpt lat="45.37612" lon="7.08013">
        <ele>1928</ele>
        <time>2018-03-14T10:00:57Z</time>
      </trkpt>
      <trkpt lat="45.37613" lon="7.08027">
        <ele>1929</ele>
        <time>2018-03-14T10:01:10Z</time>
      </trkpt>
      <trkpt lat="45.37617" lon="7.0803">
        <ele>1929</ele>
        <time>2018-03-14T10:01:13Z</time>
      </trkpt>
      <trkpt lat="45.3762" lon="7.08036">
        <ele>1929</ele>
        <time>2018-03-14T10:01:20Z</time>
      </trkpt>
      <trkpt lat="45.37624" lon="7.08059">
        <ele>1930</ele>
        <time>2018-03-14T10:01:40Z</time>
      </trkpt>
      <trkpt lat="45.3763" lon="7.08077">
        <ele>1931</ele>
        <time>2018-03-14T10:02:00Z</time>
      </trkpt>
      <trkpt lat="45.37635" lon="7.08085">
        <ele>1938</ele>
        <time>2018-03-14T10:02:20Z</time>
      </trkpt>
      <trkpt lat="45.37634" lon="7.08089">
        <ele>1938</ele>
        <time>2018-03-14T10:02:31Z</time>
      </trkpt>
      <trkpt lat="45.37632" lon="7.08104">
        <ele>1939</ele>
        <time>2018-03-14T10:02:47Z</time>
      </trkpt>
      <trkpt lat="45.37628" lon="7.08114">
        <ele>1939</ele>
        <time>2018-03-14T10:03:02Z</time>
      </trkpt>
      <trkpt lat="45.37624" lon="7.0812">
        <ele>1940</ele>
        <time>2018-03-14T10:03:20Z</time>
      </trkpt>
      <trkpt lat="45.37631" lon="7.08126">
        <ele>1940</ele>
        <time>2018-03-14T10:04:08Z</time>
      </trkpt>
      <trkpt lat="45.37643" lon="7.08133">
        <ele>1941</ele>
        <time>2018-03-14T10:04:26Z</time>
      </trkpt>
      <trkpt lat="45.3765" lon="7.08147">
        <ele>1942</ele>
        <time>2018-03-14T10:04:43Z</time>
      </trkpt>
      <trkpt lat="45.3765" lon="7.08159">
        <ele>1943</ele>
        <time>2018-03-14T10:05:03Z</time>
      </trkpt>
      <trkpt lat="45.37653" lon="7.08165">
        <ele>1944</ele>
        <time>2018-03-14T10:05:23Z</time>
      </trkpt>
      <trkpt lat="45.37654" lon="7.08169">
        <ele>1948</ele>
        <time>2018-03-14T10:05:28Z</time>
      </trkpt>
      <trkpt lat="45.37662" lon="7.08171">
        <ele>1947</ele>
        <time>2018-03-14T10:05:48Z</time>
      </trkpt>
      <trkpt lat="45.37665" lon="7.08167">
        <ele>1946</ele>
        <time>2018-03-14T10:06:09Z</time>
      </trkpt>
      <trkpt lat="45.37667" lon="7.0816">
        <ele>1946</ele>
        <time>2018-03-14T10:06:30Z</time>
      </trkpt>
      <trkpt lat="45.37672" lon="7.08154">
        <ele>1947</ele>
        <time>2018-03-14T10:06:52Z</time>
      </trkpt>
      <trkpt lat="45.3767" lon="7.08154">
        <ele>1947</ele>
        <time>2018-03-14T10:07:08Z</time>
      </trkpt>
      <trkpt lat="45.37672" lon="7.08156">
        <ele>1947</ele>
        <time>2018-03-14T10:07:23Z</time>
      </trkpt>
      <trkpt lat="45.37673" lon="7.08155">
        <ele>1947</ele>
        <time>2018-03-14T10:07:45Z</time>
      </trkpt>
      <trkpt lat="45.37673" lon="7.08155">
        <ele>1947</ele>
        <time>2018-03-14T10:07:46Z</time>
      </trkpt>
      <trkpt lat="45.37678" lon="7.08145">
        <ele>1947</ele>
        <time>2018-03-14T10:08:01Z</time>
      </trkpt>
      <trkpt lat="45.37688" lon="7.08149">
        <ele>1947</ele>
        <time>2018-03-14T10:08:17Z</time>
      </trkpt>
      <trkpt lat="45.37704" lon="7.08153">
        <ele>1949</ele>
        <time>2018-03-14T10:08:35Z</time>
      </trkpt>
      <trkpt lat="45.37717" lon="7.0815">
        <ele>1951</ele>
        <time>2018-03-14T10:08:49Z</time>
      </trkpt>
      <trkpt lat="45.37721" lon="7.08152">
        <ele>1951</ele>
        <time>2018-03-14T10:09:02Z</time>
      </trkpt>
      <trkpt lat="45.37727" lon="7.08165">
        <ele>1953</ele>
        <time>2018-03-14T10:09:23Z</time>
      </trkpt>
      <trkpt lat="45.37728" lon="7.08168">
        <ele>1957</ele>
        <time>2018-03-14T10:09:27Z</time>
      </trkpt>
      <trkpt lat="45.3773" lon="7.08172">
        <ele>1957</ele>
        <time>2018-03-14T10:09:45Z</time>
      </trkpt>
      <trkpt lat="45.3773" lon="7.08172">
        <ele>1957</ele>
        <time>2018-03-14T10:09:49Z</time>
      </trkpt>
      <trkpt lat="45.37731" lon="7.08177">
        <ele>1957</ele>
        <time>2018-03-14T10:09:55Z</time>
      </trkpt>
      <trkpt lat="45.37736" lon="7.08195">
        <ele>1957</ele>
        <time>2018-03-14T10:10:13Z</time>
      </trkpt>
      <trkpt lat="45.37737" lon="7.08198">
        <ele>1957</ele>
        <time>2018-03-14T10:10:16Z</time>
      </trkpt>
      <trkpt lat="45.37742" lon="7.08202">
        <ele>1957</ele>
        <time>2018-03-14T10:10:20Z</time>
      </trkpt>
      <trkpt lat="45.37755" lon="7.08218">
        <ele>1968</ele>
        <time>2018-03-14T10:10:38Z</time>
      </trkpt>
      <trkpt lat="45.37765" lon="7.08226">
        <ele>1969</ele>
        <time>2018-03-14T10:10:50Z</time>
      </trkpt>
      <trkpt lat="45.37773" lon="7.08241">
        <ele>1969</ele>
        <time>2018-03-14T10:11:07Z</time>
      </trkpt>
      <trkpt lat="45.37777" lon="7.08245">
        <ele>1970</ele>
        <time>2018-03-14T10:11:28Z</time>
      </trkpt>
      <trkpt lat="45.3778" lon="7.08241">
        <ele>1970</ele>
        <time>2018-03-14T10:11:48Z</time>
      </trkpt>
      <trkpt lat="45.37781" lon="7.08249">
        <ele>1970</ele>
        <time>2018-03-14T10:12:46Z</time>
      </trkpt>
      <trkpt lat="45.37785" lon="7.08261">
        <ele>1970</ele>
        <time>2018-03-14T10:13:00Z</time>
      </trkpt>
      <trkpt lat="45.37789" lon="7.08273">
        <ele>1970</ele>
        <time>2018-03-14T10:13:13Z</time>
      </trkpt>
      <trkpt lat="45.3779" lon="7.08289">
        <ele>1970</ele>
        <time>2018-03-14T10:13:28Z</time>
      </trkpt>
      <trkpt lat="45.37802" lon="7.083">
        <ele>1971</ele>
        <time>2018-03-14T10:13:47Z</time>
      </trkpt>
      <trkpt lat="45.37807" lon="7.08309">
        <ele>1972</ele>
        <time>2018-03-14T10:14:01Z</time>
      </trkpt>
      <trkpt lat="45.37815" lon="7.08319">
        <ele>1973</ele>
        <time>2018-03-14T10:14:15Z</time>
      </trkpt>
      <trkpt lat="45.3782" lon="7.08328">
        <ele>1974</ele>
        <time>2018-03-14T10:14:32Z</time>
      </trkpt>
      <trkpt lat="45.37826" lon="7.0833">
        <ele>1975</ele>
        <time>2018-03-14T10:14:40Z</time>
      </trkpt>
      <trkpt lat="45.37824" lon="7.08333">
        <ele>1975</ele>
        <time>2018-03-14T10:14:47Z</time>
      </trkpt>
      <trkpt lat="45.37828" lon="7.08332">
        <ele>1976</ele>
        <time>2018-03-14T10:14:53Z</time>
      </trkpt>
      <trkpt lat="45.37837" lon="7.08334">
        <ele>1978</ele>
        <time>2018-03-14T10:15:14Z</time>
      </trkpt>
      <trkpt lat="45.37839" lon="7.08333">
        <ele>1979</ele>
        <time>2018-03-14T10:15:16Z</time>
      </trkpt>
      <trkpt lat="45.37856" lon="7.08337">
        <ele>1981</ele>
        <time>2018-03-14T10:15:31Z</time>
      </trkpt>
      <trkpt lat="45.37868" lon="7.08347">
        <ele>1982</ele>
        <time>2018-03-14T10:15:49Z</time>
      </trkpt>
      <trkpt lat="45.37877" lon="7.08358">
        <ele>1983</ele>
        <time>2018-03-14T10:16:06Z</time>
      </trkpt>
      <trkpt lat="45.37887" lon="7.08371">
        <ele>1984</ele>
        <time>2018-03-14T10:16:25Z</time>
      </trkpt>
      <trkpt lat="45.37893" lon="7.08388">
        <ele>1984</ele>
        <time>2018-03-14T10:16:42Z</time>
      </trkpt>
      <trkpt lat="45.37899" lon="7.08399">
        <ele>1985</ele>
        <time>2018-03-14T10:16:52Z</time>
      </trkpt>
      <trkpt lat="45.37903" lon="7.08403">
        <ele>1986</ele>
        <time>2018-03-14T10:16:55Z</time>
      </trkpt>
      <trkpt lat="45.37906" lon="7.08408">
        <ele>1987</ele>
        <time>2018-03-14T10:16:59Z</time>
      </trkpt>
      <trkpt lat="45.37909" lon="7.08413">
        <ele>1988</ele>
        <time>2018-03-14T10:17:05Z</time>
      </trkpt>
      <trkpt lat="45.3791" lon="7.08424">
        <ele>1987</ele>
        <time>2018-03-14T10:17:23Z</time>
      </trkpt>
      <trkpt lat="45.3791" lon="7.08424">
        <ele>1987</ele>
        <time>2018-03-14T10:17:59Z</time>
      </trkpt>
      <trkpt lat="45.37911" lon="7.08432">
        <ele>1986</ele>
        <time>2018-03-14T10:18:15Z</time>
      </trkpt>
      <trkpt lat="45.37916" lon="7.0844">
        <ele>1986</ele>
        <time>2018-03-14T10:18:29Z</time>
      </trkpt>
      <trkpt lat="45.37923" lon="7.0846">
        <ele>1999</ele>
        <time>2018-03-14T10:18:45Z</time>
      </trkpt>
      <trkpt lat="45.37923" lon="7.08465">
        <ele>1999</ele>
        <time>2018-03-14T10:18:49Z</time>
      </trkpt>
      <trkpt lat="45.3792" lon="7.08482">
        <ele>1998</ele>
        <time>2018-03-14T10:19:03Z</time>
      </trkpt>
      <trkpt lat="45.37919" lon="7.08495">
        <ele>1996</ele>
        <time>2018-03-14T10:19:18Z</time>
      </trkpt>
      <trkpt lat="45.37923" lon="7.08504">
        <ele>1998</ele>
        <time>2018-03-14T10:19:31Z</time>
      </trkpt>
      <trkpt lat="45.37931" lon="7.08518">
        <ele>2003</ele>
        <time>2018-03-14T10:19:48Z</time>
      </trkpt>
      <trkpt lat="45.37941" lon="7.08526">
        <ele>2005</ele>
        <time>2018-03-14T10:20:07Z</time>
      </trkpt>
      <trkpt lat="45.37947" lon="7.08536">
        <ele>2007</ele>
        <time>2018-03-14T10:20:25Z</time>
      </trkpt>
      <trkpt lat="45.37953" lon="7.0855">
        <ele>2008</ele>
        <time>2018-03-14T10:20:41Z</time>
      </trkpt>
      <trkpt lat="45.37954" lon="7.08565">
        <ele>2009</ele>
        <time>2018-03-14T10:20:56Z</time>
      </trkpt>
      <trkpt lat="45.37952" lon="7.08579">
        <ele>2008</ele>
        <time>2018-03-14T10:21:14Z</time>
      </trkpt>
      <trkpt lat="45.37949" lon="7.08594">
        <ele>2010</ele>
        <time>2018-03-14T10:21:33Z</time>
      </trkpt>
      <trkpt lat="45.37952" lon="7.086">
        <ele>2011</ele>
        <time>2018-03-14T10:21:51Z</time>
      </trkpt>
      <trkpt lat="45.37953" lon="7.08599">
        <ele>2011</ele>
        <time>2018-03-14T10:22:39Z</time>
      </trkpt>
      <trkpt lat="45.37949" lon="7.086">
        <ele>2011</ele>
        <time>2018-03-14T10:23:09Z</time>
      </trkpt>
      <trkpt lat="45.37953" lon="7.08608">
        <ele>2012</ele>
        <time>2018-03-14T10:23:32Z</time>
      </trkpt>
      <trkpt lat="45.37953" lon="7.08619">
        <ele>2012</ele>
        <time>2018-03-14T10:23:59Z</time>
      </trkpt>
      <trkpt lat="45.37957" lon="7.08634">
        <ele>2013</ele>
        <time>2018-03-14T10:24:17Z</time>
      </trkpt>
      <trkpt lat="45.37957" lon="7.0865">
        <ele>2013</ele>
        <time>2018-03-14T10:24:32Z</time>
      </trkpt>
      <trkpt lat="45.37959" lon="7.0866">
        <ele>2013</ele>
        <time>2018-03-14T10:24:48Z</time>
      </trkpt>
      <trkpt lat="45.3796" lon="7.08658">
        <ele>2014</ele>
        <time>2018-03-14T10:25:45Z</time>
      </trkpt>
      <trkpt lat="45.37961" lon="7.08655">
        <ele>2014</ele>
        <time>2018-03-14T10:26:37Z</time>
      </trkpt>
      <trkpt lat="45.37963" lon="7.08657">
        <ele>2014</ele>
        <time>2018-03-14T10:27:11Z</time>
      </trkpt>
      <trkpt lat="45.37969" lon="7.08665">
        <ele>2016</ele>
        <time>2018-03-14T10:28:00Z</time>
      </trkpt>
      <trkpt lat="45.37976" lon="7.08677">
        <ele>2017</ele>
        <time>2018-03-14T10:28:18Z</time>
      </trkpt>
      <trkpt lat="45.37977" lon="7.08679">
        <ele>2018</ele>
        <time>2018-03-14T10:28:42Z</time>
      </trkpt>
      <trkpt lat="45.37981" lon="7.08687">
        <ele>2018</ele>
        <time>2018-03-14T10:29:18Z</time>
      </trkpt>
      <trkpt lat="45.37987" lon="7.08703">
        <ele>2017</ele>
        <time>2018-03-14T10:29:35Z</time>
      </trkpt>
      <trkpt lat="45.37987" lon="7.08704">
        <ele>2017</ele>
        <time>2018-03-14T10:29:37Z</time>
      </trkpt>
      <trkpt lat="45.3799" lon="7.08708">
        <ele>2017</ele>
        <time>2018-03-14T10:29:57Z</time>
      </trkpt>
      <trkpt lat="45.37994" lon="7.08713">
        <ele>2018</ele>
        <time>2018-03-14T10:30:18Z</time>
      </trkpt>
      <trkpt lat="45.37994" lon="7.08715">
        <ele>2018</ele>
        <time>2018-03-14T10:31:08Z</time>
      </trkpt>
      <trkpt lat="45.37995" lon="7.08717">
        <ele>2018</ele>
        <time>2018-03-14T10:31:19Z</time>
      </trkpt>
      <trkpt lat="45.38007" lon="7.08724">
        <ele>2034</ele>
        <time>2018-03-14T10:31:35Z</time>
      </trkpt>
      <trkpt lat="45.38012" lon="7.08732">
        <ele>2034</ele>
        <time>2018-03-14T10:31:48Z</time>
      </trkpt>
      <trkpt lat="45.38027" lon="7.08741">
        <ele>2036</ele>
        <time>2018-03-14T10:32:03Z</time>
      </trkpt>
      <trkpt lat="45.38034" lon="7.0875">
        <ele>2036</ele>
        <time>2018-03-14T10:32:18Z</time>
      </trkpt>
      <trkpt lat="45.38038" lon="7.08761">
        <ele>2037</ele>
        <time>2018-03-14T10:32:42Z</time>
      </trkpt>
      <trkpt lat="45.38038" lon="7.08782">
        <ele>2036</ele>
        <time>2018-03-14T10:32:59Z</time>
      </trkpt>
      <trkpt lat="45.38046" lon="7.08798">
        <ele>2037</ele>
        <time>2018-03-14T10:33:13Z</time>
      </trkpt>
      <trkpt lat="45.38051" lon="7.08805">
        <ele>2038</ele>
        <time>2018-03-14T10:33:22Z</time>
      </trkpt>
      <trkpt lat="45.3805" lon="7.08807">
        <ele>2037</ele>
        <time>2018-03-14T10:33:24Z</time>
      </trkpt>
      <trkpt lat="45.38051" lon="7.0881">
        <ele>2038</ele>
        <time>2018-03-14T10:33:26Z</time>
      </trkpt>
      <trkpt lat="45.3806" lon="7.08823">
        <ele>2039</ele>
        <time>2018-03-14T10:33:35Z</time>
      </trkpt>
      <trkpt lat="45.38052" lon="7.08833">
        <ele>2038</ele>
        <time>2018-03-14T10:33:50Z</time>
      </trkpt>
      <trkpt lat="45.38049" lon="7.08829">
        <ele>2037</ele>
        <time>2018-03-14T10:34:22Z</time>
      </trkpt>
      <trkpt lat="45.38048" lon="7.08828">
        <ele>2037</ele>
        <time>2018-03-14T10:35:33Z</time>
      </trkpt>
      <trkpt lat="45.38054" lon="7.08844">
        <ele>2037</ele>
        <time>2018-03-14T10:35:51Z</time>
      </trkpt>
      <trkpt lat="45.38064" lon="7.08852">
        <ele>2038</ele>
        <time>2018-03-14T10:36:08Z</time>
      </trkpt>
      <trkpt lat="45.38068" lon="7.08857">
        <ele>2038</ele>
        <time>2018-03-14T10:36:16Z</time>
      </trkpt>
      <trkpt lat="45.38075" lon="7.08859">
        <ele>2039</ele>
        <time>2018-03-14T10:36:22Z</time>
      </trkpt>
      <trkpt lat="45.38082" lon="7.08863">
        <ele>2039</ele>
        <time>2018-03-14T10:36:39Z</time>
      </trkpt>
      <trkpt lat="45.38082" lon="7.08877">
        <ele>2039</ele>
        <time>2018-03-14T10:37:00Z</time>
      </trkpt>
      <trkpt lat="45.3808" lon="7.08887">
        <ele>2040</ele>
        <time>2018-03-14T10:37:19Z</time>
      </trkpt>
      <trkpt lat="45.3808" lon="7.08888">
        <ele>2040</ele>
        <time>2018-03-14T10:37:24Z</time>
      </trkpt>
      <trkpt lat="45.38076" lon="7.08905">
        <ele>2043</ele>
        <time>2018-03-14T10:37:41Z</time>
      </trkpt>
      <trkpt lat="45.38078" lon="7.08916">
        <ele>2045</ele>
        <time>2018-03-14T10:37:57Z</time>
      </trkpt>
      <trkpt lat="45.38091" lon="7.08923">
        <ele>2050</ele>
        <time>2018-03-14T10:38:14Z</time>
      </trkpt>
      <trkpt lat="45.38096" lon="7.08931">
        <ele>2051</ele>
        <time>2018-03-14T10:38:31Z</time>
      </trkpt>
      <trkpt lat="45.38096" lon="7.08933">
        <ele>2051</ele>
        <time>2018-03-14T10:38:55Z</time>
      </trkpt>
      <trkpt lat="45.38097" lon="7.08932">
        <ele>2051</ele>
        <time>2018-03-14T10:39:28Z</time>
      </trkpt>
      <trkpt lat="45.38101" lon="7.08936">
        <ele>2052</ele>
        <time>2018-03-14T10:40:11Z</time>
      </trkpt>
      <trkpt lat="45.38105" lon="7.08941">
        <ele>2052</ele>
        <time>2018-03-14T10:40:28Z</time>
      </trkpt>
      <trkpt lat="45.3811" lon="7.08952">
        <ele>2052</ele>
        <time>2018-03-14T10:40:47Z</time>
      </trkpt>
      <trkpt lat="45.38111" lon="7.0896">
        <ele>2052</ele>
        <time>2018-03-14T10:41:23Z</time>
      </trkpt>
      <trkpt lat="45.38117" lon="7.08973">
        <ele>2052</ele>
        <time>2018-03-14T10:41:39Z</time>
      </trkpt>
      <trkpt lat="45.38128" lon="7.08981">
        <ele>2053</ele>
        <time>2018-03-14T10:41:55Z</time>
      </trkpt>
      <trkpt lat="45.38132" lon="7.08981">
        <ele>2053</ele>
        <time>2018-03-14T10:42:14Z</time>
      </trkpt>
      <trkpt lat="45.38135" lon="7.08982">
        <ele>2054</ele>
        <time>2018-03-14T10:42:46Z</time>
      </trkpt>
      <trkpt lat="45.38148" lon="7.08988">
        <ele>2056</ele>
        <time>2018-03-14T10:43:04Z</time>
      </trkpt>
      <trkpt lat="45.38149" lon="7.08988">
        <ele>2056</ele>
        <time>2018-03-14T10:43:59Z</time>
      </trkpt>
      <trkpt lat="45.38157" lon="7.08987">
        <ele>2056</ele>
        <time>2018-03-14T10:44:24Z</time>
      </trkpt>
      <trkpt lat="45.38167" lon="7.08995">
        <ele>2062</ele>
        <time>2018-03-14T10:44:43Z</time>
      </trkpt>
      <trkpt lat="45.38178" lon="7.09006">
        <ele>2060</ele>
        <time>2018-03-14T10:44:59Z</time>
      </trkpt>
      <trkpt lat="45.38185" lon="7.0902">
        <ele>2060</ele>
        <time>2018-03-14T10:45:16Z</time>
      </trkpt>
      <trkpt lat="45.3819" lon="7.09021">
        <ele>2061</ele>
        <time>2018-03-14T10:45:24Z</time>
      </trkpt>
      <trkpt lat="45.38196" lon="7.09039">
        <ele>2060</ele>
        <time>2018-03-14T10:45:40Z</time>
      </trkpt>
      <trkpt lat="45.38213" lon="7.09055">
        <ele>2060</ele>
        <time>2018-03-14T10:45:56Z</time>
      </trkpt>
      <trkpt lat="45.38207" lon="7.09063">
        <ele>2058</ele>
        <time>2018-03-14T10:46:12Z</time>
      </trkpt>
      <trkpt lat="45.38192" lon="7.09061">
        <ele>2056</ele>
        <time>2018-03-14T10:46:27Z</time>
      </trkpt>
      <trkpt lat="45.38189" lon="7.09055">
        <ele>2057</ele>
        <time>2018-03-14T10:46:50Z</time>
      </trkpt>
      <trkpt lat="45.3818" lon="7.0905">
        <ele>2056</ele>
        <time>2018-03-14T10:47:12Z</time>
      </trkpt>
      <trkpt lat="45.3818" lon="7.09048">
        <ele>2057</ele>
        <time>2018-03-14T10:48:04Z</time>
      </trkpt>
      <trkpt lat="45.38176" lon="7.09045">
        <ele>2057</ele>
        <time>2018-03-14T10:48:46Z</time>
      </trkpt>
      <trkpt lat="45.38173" lon="7.09049">
        <ele>2056</ele>
        <time>2018-03-14T10:48:57Z</time>
      </trkpt>
      <trkpt lat="45.38173" lon="7.09052">
        <ele>2055</ele>
        <time>2018-03-14T10:48:59Z</time>
      </trkpt>
      <trkpt lat="45.38172" lon="7.09055">
        <ele>2054</ele>
        <time>2018-03-14T10:49:03Z</time>
      </trkpt>
      <trkpt lat="45.3817" lon="7.09073">
        <ele>2048</ele>
        <time>2018-03-14T10:49:18Z</time>
      </trkpt>
      <trkpt lat="45.38178" lon="7.09085">
        <ele>2042</ele>
        <time>2018-03-14T10:49:30Z</time>
      </trkpt>
      <trkpt lat="45.38177" lon="7.09097">
        <ele>2042</ele>
        <time>2018-03-14T10:49:39Z</time>
      </trkpt>
      <trkpt lat="45.38178" lon="7.09099">
        <ele>2042</ele>
        <time>2018-03-14T10:49:41Z</time>
      </trkpt>
      <trkpt lat="45.38181" lon="7.09106">
        <ele>2043</ele>
        <time>2018-03-14T10:49:48Z</time>
      </trkpt>
      <trkpt lat="45.38182" lon="7.09112">
        <ele>2042</ele>
        <time>2018-03-14T10:50:09Z</time>
      </trkpt>
      <trkpt lat="45.38183" lon="7.09115">
        <ele>2042</ele>
        <time>2018-03-14T10:50:14Z</time>
      </trkpt>
      <trkpt lat="45.38182" lon="7.09124">
        <ele>2042</ele>
        <time>2018-03-14T10:50:31Z</time>
      </trkpt>
      <trkpt lat="45.3819" lon="7.09132">
        <ele>2041</ele>
        <time>2018-03-14T10:50:50Z</time>
      </trkpt>
      <trkpt lat="45.38191" lon="7.09131">
        <ele>2042</ele>
        <time>2018-03-14T10:51:32Z</time>
      </trkpt>
      <trkpt lat="45.38197" lon="7.09132">
        <ele>2042</ele>
        <time>2018-03-14T10:51:39Z</time>
      </trkpt>
      <trkpt lat="45.38201" lon="7.09134">
        <ele>2042</ele>
        <time>2018-03-14T10:51:43Z</time>
      </trkpt>
      <trkpt lat="45.38205" lon="7.09137">
        <ele>2042</ele>
        <time>2018-03-14T10:51:50Z</time>
      </trkpt>
      <trkpt lat="45.38213" lon="7.09147">
        <ele>2042</ele>
        <time>2018-03-14T10:52:06Z</time>
      </trkpt>
      <trkpt lat="45.38214" lon="7.09147">
        <ele>2042</ele>
        <time>2018-03-14T10:52:13Z</time>
      </trkpt>
      <trkpt lat="45.3822" lon="7.09155">
        <ele>2042</ele>
        <time>2018-03-14T10:52:18Z</time>
      </trkpt>
      <trkpt lat="45.38222" lon="7.09166">
        <ele>2041</ele>
        <time>2018-03-14T10:52:24Z</time>
      </trkpt>
      <trkpt lat="45.38233" lon="7.09186">
        <ele>2037</ele>
        <time>2018-03-14T10:52:41Z</time>
      </trkpt>
      <trkpt lat="45.38232" lon="7.09188">
        <ele>2037</ele>
        <time>2018-03-14T10:52:44Z</time>
      </trkpt>
      <trkpt lat="45.3824" lon="7.09203">
        <ele>2036</ele>
        <time>2018-03-14T10:52:54Z</time>
      </trkpt>
      <trkpt lat="45.38242" lon="7.09212">
        <ele>2036</ele>
        <time>2018-03-14T10:53:00Z</time>
      </trkpt>
      <trkpt lat="45.38243" lon="7.09215">
        <ele>2036</ele>
        <time>2018-03-14T10:53:02Z</time>
      </trkpt>
      <trkpt lat="45.38243" lon="7.09218">
        <ele>2036</ele>
        <time>2018-03-14T10:53:04Z</time>
      </trkpt>
      <trkpt lat="45.38247" lon="7.0922">
        <ele>2036</ele>
        <time>2018-03-14T10:53:08Z</time>
      </trkpt>
      <trkpt lat="45.38252" lon="7.09222">
        <ele>2043</ele>
        <time>2018-03-14T10:53:11Z</time>
      </trkpt>
      <trkpt lat="45.38265" lon="7.09243">
        <ele>2041</ele>
        <time>2018-03-14T10:53:27Z</time>
      </trkpt>
      <trkpt lat="45.38266" lon="7.09244">
        <ele>2041</ele>
        <time>2018-03-14T10:53:28Z</time>
      </trkpt>
      <trkpt lat="45.38273" lon="7.09261">
        <ele>2040</ele>
        <time>2018-03-14T10:53:39Z</time>
      </trkpt>
      <trkpt lat="45.38273" lon="7.09268">
        <ele>2040</ele>
        <time>2018-03-14T10:53:43Z</time>
      </trkpt>
      <trkpt lat="45.38276" lon="7.09275">
        <ele>2040</ele>
        <time>2018-03-14T10:53:48Z</time>
      </trkpt>
      <trkpt lat="45.38279" lon="7.09276">
        <ele>2040</ele>
        <time>2018-03-14T10:53:51Z</time>
      </trkpt>
      <trkpt lat="45.38282" lon="7.09285">
        <ele>2040</ele>
        <time>2018-03-14T10:53:59Z</time>
      </trkpt>
      <trkpt lat="45.38286" lon="7.09294">
        <ele>2041</ele>
        <time>2018-03-14T10:54:06Z</time>
      </trkpt>
      <trkpt lat="45.38293" lon="7.09304">
        <ele>2041</ele>
        <time>2018-03-14T10:54:17Z</time>
      </trkpt>
      <trkpt lat="45.38295" lon="7.09311">
        <ele>2041</ele>
        <time>2018-03-14T10:54:21Z</time>
      </trkpt>
      <trkpt lat="45.38293" lon="7.09317">
        <ele>2041</ele>
        <time>2018-03-14T10:54:25Z</time>
      </trkpt>
      <trkpt lat="45.38294" lon="7.09324">
        <ele>2041</ele>
        <time>2018-03-14T10:54:30Z</time>
      </trkpt>
      <trkpt lat="45.38298" lon="7.09332">
        <ele>2041</ele>
        <time>2018-03-14T10:54:35Z</time>
      </trkpt>
      <trkpt lat="45.38301" lon="7.09337">
        <ele>2040</ele>
        <time>2018-03-14T10:54:39Z</time>
      </trkpt>
      <trkpt lat="45.38303" lon="7.09346">
        <ele>2040</ele>
        <time>2018-03-14T10:54:44Z</time>
      </trkpt>
      <trkpt lat="45.38305" lon="7.09353">
        <ele>2040</ele>
        <time>2018-03-14T10:54:50Z</time>
      </trkpt>
      <trkpt lat="45.38313" lon="7.09359">
        <ele>2040</ele>
        <time>2018-03-14T10:54:56Z</time>
      </trkpt>
      <trkpt lat="45.38313" lon="7.09366">
        <ele>2040</ele>
        <time>2018-03-14T10:55:00Z</time>
      </trkpt>
      <trkpt lat="45.38316" lon="7.09376">
        <ele>2040</ele>
        <time>2018-03-14T10:55:08Z</time>
      </trkpt>
      <trkpt lat="45.38317" lon="7.09377">
        <ele>2040</ele>
        <time>2018-03-14T10:55:10Z</time>
      </trkpt>
      <trkpt lat="45.38318" lon="7.09377">
        <ele>2040</ele>
        <time>2018-03-14T10:55:11Z</time>
      </trkpt>
      <trkpt lat="45.38319" lon="7.0938">
        <ele>2040</ele>
        <time>2018-03-14T10:55:13Z</time>
      </trkpt>
      <trkpt lat="45.38318" lon="7.09384">
        <ele>2040</ele>
        <time>2018-03-14T10:55:15Z</time>
      </trkpt>
      <trkpt lat="45.38317" lon="7.09385">
        <ele>2040</ele>
        <time>2018-03-14T10:55:16Z</time>
      </trkpt>
      <trkpt lat="45.38328" lon="7.09404">
        <ele>2040</ele>
        <time>2018-03-14T10:55:31Z</time>
      </trkpt>
      <trkpt lat="45.38332" lon="7.09416">
        <ele>2040</ele>
        <time>2018-03-14T10:55:40Z</time>
      </trkpt>
      <trkpt lat="45.38333" lon="7.09425">
        <ele>2039</ele>
        <time>2018-03-14T10:55:46Z</time>
      </trkpt>
      <trkpt lat="45.38337" lon="7.0943">
        <ele>2042</ele>
        <time>2018-03-14T10:55:50Z</time>
      </trkpt>
      <trkpt lat="45.38338" lon="7.09438">
        <ele>2042</ele>
        <time>2018-03-14T10:55:56Z</time>
      </trkpt>
      <trkpt lat="45.38339" lon="7.09441">
        <ele>2042</ele>
        <time>2018-03-14T10:55:58Z</time>
      </trkpt>
      <trkpt lat="45.38342" lon="7.09442">
        <ele>2043</ele>
        <time>2018-03-14T10:56:00Z</time>
      </trkpt>
      <trkpt lat="45.38347" lon="7.09447">
        <ele>2043</ele>
        <time>2018-03-14T10:56:05Z</time>
      </trkpt>
      <trkpt lat="45.3836" lon="7.09453">
        <ele>2044</ele>
        <time>2018-03-14T10:56:11Z</time>
      </trkpt>
      <trkpt lat="45.38363" lon="7.09455">
        <ele>2044</ele>
        <time>2018-03-14T10:56:13Z</time>
      </trkpt>
      <trkpt lat="45.38368" lon="7.09457">
        <ele>2044</ele>
        <time>2018-03-14T10:56:16Z</time>
      </trkpt>
      <trkpt lat="45.38367" lon="7.09468">
        <ele>2044</ele>
        <time>2018-03-14T10:56:21Z</time>
      </trkpt>
      <trkpt lat="45.38371" lon="7.09475">
        <ele>2044</ele>
        <time>2018-03-14T10:56:26Z</time>
      </trkpt>
      <trkpt lat="45.38373" lon="7.09477">
        <ele>2044</ele>
        <time>2018-03-14T10:56:28Z</time>
      </trkpt>
      <trkpt lat="45.38381" lon="7.09485">
        <ele>2044</ele>
        <time>2018-03-14T10:56:33Z</time>
      </trkpt>
      <trkpt lat="45.38393" lon="7.09499">
        <ele>2044</ele>
        <time>2018-03-14T10:56:45Z</time>
      </trkpt>
      <trkpt lat="45.38394" lon="7.09504">
        <ele>2043</ele>
        <time>2018-03-14T10:56:48Z</time>
      </trkpt>
      <trkpt lat="45.38397" lon="7.09516">
        <ele>2043</ele>
        <time>2018-03-14T10:56:57Z</time>
      </trkpt>
      <trkpt lat="45.384" lon="7.0952">
        <ele>2043</ele>
        <time>2018-03-14T10:57:00Z</time>
      </trkpt>
      <trkpt lat="45.38402" lon="7.09522">
        <ele>2043</ele>
        <time>2018-03-14T10:57:02Z</time>
      </trkpt>
      <trkpt lat="45.38407" lon="7.09534">
        <ele>2043</ele>
        <time>2018-03-14T10:57:09Z</time>
      </trkpt>
      <trkpt lat="45.38413" lon="7.09552">
        <ele>2042</ele>
        <time>2018-03-14T10:57:24Z</time>
      </trkpt>
      <trkpt lat="45.38415" lon="7.09564">
        <ele>2043</ele>
        <time>2018-03-14T10:57:32Z</time>
      </trkpt>
      <trkpt lat="45.38419" lon="7.0958">
        <ele>2045</ele>
        <time>2018-03-14T10:57:42Z</time>
      </trkpt>
      <trkpt lat="45.38422" lon="7.09586">
        <ele>2046</ele>
        <time>2018-03-14T10:57:46Z</time>
      </trkpt>
      <trkpt lat="45.38425" lon="7.09592">
        <ele>2048</ele>
        <time>2018-03-14T10:57:50Z</time>
      </trkpt>
      <trkpt lat="45.38429" lon="7.09602">
        <ele>2050</ele>
        <time>2018-03-14T10:57:59Z</time>
      </trkpt>
      <trkpt lat="45.3843" lon="7.0963">
        <ele>2051</ele>
        <time>2018-03-14T10:58:15Z</time>
      </trkpt>
      <trkpt lat="45.38431" lon="7.09638">
        <ele>2051</ele>
        <time>2018-03-14T10:58:20Z</time>
      </trkpt>
      <trkpt lat="45.38432" lon="7.09649">
        <ele>2050</ele>
        <time>2018-03-14T10:58:26Z</time>
      </trkpt>
      <trkpt lat="45.38431" lon="7.09662">
        <ele>2048</ele>
        <time>2018-03-14T10:58:35Z</time>
      </trkpt>
      <trkpt lat="45.38432" lon="7.0967">
        <ele>2048</ele>
        <time>2018-03-14T10:58:41Z</time>
      </trkpt>
      <trkpt lat="45.38432" lon="7.09679">
        <ele>2049</ele>
        <time>2018-03-14T10:58:48Z</time>
      </trkpt>
      <trkpt lat="45.38432" lon="7.09689">
        <ele>2050</ele>
        <time>2018-03-14T10:58:55Z</time>
      </trkpt>
      <trkpt lat="45.38443" lon="7.09713">
        <ele>2052</ele>
        <time>2018-03-14T10:59:12Z</time>
      </trkpt>
      <trkpt lat="45.38452" lon="7.09736">
        <ele>2053</ele>
        <time>2018-03-14T10:59:25Z</time>
      </trkpt>
      <trkpt lat="45.38452" lon="7.0975">
        <ele>2055</ele>
        <time>2018-03-14T10:59:33Z</time>
      </trkpt>
      <trkpt lat="45.38448" lon="7.09779">
        <ele>2055</ele>
        <time>2018-03-14T10:59:50Z</time>
      </trkpt>
      <trkpt lat="45.38442" lon="7.09807">
        <ele>2055</ele>
        <time>2018-03-14T11:00:07Z</time>
      </trkpt>
      <trkpt lat="45.38439" lon="7.09822">
        <ele>2054</ele>
        <time>2018-03-14T11:00:17Z</time>
      </trkpt>
      <trkpt lat="45.38437" lon="7.09834">
        <ele>2053</ele>
        <time>2018-03-14T11:00:26Z</time>
      </trkpt>
      <trkpt lat="45.38439" lon="7.09849">
        <ele>2054</ele>
        <time>2018-03-14T11:00:43Z</time>
      </trkpt>
      <trkpt lat="45.38439" lon="7.09858">
        <ele>2055</ele>
        <time>2018-03-14T11:00:51Z</time>
      </trkpt>
      <trkpt lat="45.3844" lon="7.09877">
        <ele>2055</ele>
        <time>2018-03-14T11:01:03Z</time>
      </trkpt>
      <trkpt lat="45.3845" lon="7.09903">
        <ele>2056</ele>
        <time>2018-03-14T11:01:21Z</time>
      </trkpt>
      <trkpt lat="45.38451" lon="7.09904">
        <ele>2056</ele>
        <time>2018-03-14T11:01:22Z</time>
      </trkpt>
      <trkpt lat="45.38455" lon="7.09918">
        <ele>2056</ele>
        <time>2018-03-14T11:01:33Z</time>
      </trkpt>
      <trkpt lat="45.38454" lon="7.09939">
        <ele>2056</ele>
        <time>2018-03-14T11:01:51Z</time>
      </trkpt>
      <trkpt lat="45.38453" lon="7.09952">
        <ele>2056</ele>
        <time>2018-03-14T11:02:02Z</time>
      </trkpt>
      <trkpt lat="45.38452" lon="7.09964">
        <ele>2056</ele>
        <time>2018-03-14T11:02:11Z</time>
      </trkpt>
      <trkpt lat="45.38454" lon="7.09977">
        <ele>2056</ele>
        <time>2018-03-14T11:02:28Z</time>
      </trkpt>
      <trkpt lat="45.38457" lon="7.09985">
        <ele>2056</ele>
        <time>2018-03-14T11:02:44Z</time>
      </trkpt>
      <trkpt lat="45.38464" lon="7.09999">
        <ele>2057</ele>
        <time>2018-03-14T11:03:01Z</time>
      </trkpt>
      <trkpt lat="45.38464" lon="7.10003">
        <ele>2057</ele>
        <time>2018-03-14T11:03:14Z</time>
      </trkpt>
      <trkpt lat="45.38472" lon="7.10002">
        <ele>2058</ele>
        <time>2018-03-14T11:03:31Z</time>
      </trkpt>
      <trkpt lat="45.3848" lon="7.1001">
        <ele>2059</ele>
        <time>2018-03-14T11:03:49Z</time>
      </trkpt>
      <trkpt lat="45.38482" lon="7.10014">
        <ele>2059</ele>
        <time>2018-03-14T11:04:17Z</time>
      </trkpt>
      <trkpt lat="45.38481" lon="7.10016">
        <ele>2059</ele>
        <time>2018-03-14T11:04:59Z</time>
      </trkpt>
      <trkpt lat="45.3848" lon="7.10017">
        <ele>2059</ele>
        <time>2018-03-14T11:05:23Z</time>
      </trkpt>
      <trkpt lat="45.38481" lon="7.10015">
        <ele>2059</ele>
        <time>2018-03-14T11:06:03Z</time>
      </trkpt>
      <trkpt lat="45.3848" lon="7.10015">
        <ele>2059</ele>
        <time>2018-03-14T11:06:25Z</time>
      </trkpt>
      <trkpt lat="45.38479" lon="7.10011">
        <ele>2059</ele>
        <time>2018-03-14T11:07:08Z</time>
      </trkpt>
      <trkpt lat="45.3848" lon="7.10015">
        <ele>2059</ele>
        <time>2018-03-14T11:07:25Z</time>
      </trkpt>
      <trkpt lat="45.3848" lon="7.10017">
        <ele>2059</ele>
        <time>2018-03-14T11:07:58Z</time>
      </trkpt>
      <trkpt lat="45.3848" lon="7.10015">
        <ele>2059</ele>
        <time>2018-03-14T11:08:17Z</time>
      </trkpt>
      <trkpt lat="45.38478" lon="7.10017">
        <ele>2059</ele>
        <time>2018-03-14T11:09:37Z</time>
      </trkpt>
      <trkpt lat="45.38478" lon="7.10016">
        <ele>2059</ele>
        <time>2018-03-14T11:10:06Z</time>
      </trkpt>
      <trkpt lat="45.38477" lon="7.10016">
        <ele>2059</ele>
        <time>2018-03-14T11:11:07Z</time>
      </trkpt>
      <trkpt lat="45.38477" lon="7.10016">
        <ele>2059</ele>
        <time>2018-03-14T11:12:56Z</time>
      </trkpt>
      <trkpt lat="45.38476" lon="7.10015">
        <ele>2058</ele>
        <time>2018-03-14T11:13:53Z</time>
      </trkpt>
      <trkpt lat="45.38478" lon="7.10013">
        <ele>2059</ele>
        <time>2018-03-14T11:14:49Z</time>
      </trkpt>
      <trkpt lat="45.38473" lon="7.1001">
        <ele>2058</ele>
        <time>2018-03-14T11:15:25Z</time>
      </trkpt>
      <trkpt lat="45.38473" lon="7.1001">
        <ele>2058</ele>
        <time>2018-03-14T11:16:14Z</time>
      </trkpt>
      <trkpt lat="45.38472" lon="7.10011">
        <ele>2058</ele>
        <time>2018-03-14T11:17:32Z</time>
      </trkpt>
      <trkpt lat="45.38474" lon="7.10013">
        <ele>2058</ele>
        <time>2018-03-14T11:18:35Z</time>
      </trkpt>
      <trkpt lat="45.38478" lon="7.10011">
        <ele>2059</ele>
        <time>2018-03-14T11:19:38Z</time>
      </trkpt>
      <trkpt lat="45.38474" lon="7.10012">
        <ele>2058</ele>
        <time>2018-03-14T11:21:16Z</time>
      </trkpt>
      <trkpt lat="45.38471" lon="7.10012">
        <ele>2058</ele>
        <time>2018-03-14T11:22:13Z</time>
      </trkpt>
      <trkpt lat="45.38473" lon="7.10011">
        <ele>2058</ele>
        <time>2018-03-14T11:23:06Z</time>
      </trkpt>
      <trkpt lat="45.38471" lon="7.10011">
        <ele>2058</ele>
        <time>2018-03-14T11:24:16Z</time>
      </trkpt>
      <trkpt lat="45.38476" lon="7.10013">
        <ele>2058</ele>
        <time>2018-03-14T11:25:43Z</time>
      </trkpt>
      <trkpt lat="45.38476" lon="7.10013">
        <ele>2058</ele>
        <time>2018-03-14T11:27:29Z</time>
      </trkpt>
      <trkpt lat="45.38478" lon="7.10013">
        <ele>2059</ele>
        <time>2018-03-14T11:29:03Z</time>
      </trkpt>
      <trkpt lat="45.38478" lon="7.10013">
        <ele>2059</ele>
        <time>2018-03-14T11:29:43Z</time>
      </trkpt>
      <trkpt lat="45.38478" lon="7.10015">
        <ele>2059</ele>
        <time>2018-03-14T11:30:22Z</time>
      </trkpt>
      <trkpt lat="45.38478" lon="7.10014">
        <ele>2059</ele>
        <time>2018-03-14T11:31:35Z</time>
      </trkpt>
      <trkpt lat="45.38478" lon="7.10015">
        <ele>2059</ele>
        <time>2018-03-14T11:33:05Z</time>
      </trkpt>
      <trkpt lat="45.38477" lon="7.10011">
        <ele>2059</ele>
        <time>2018-03-14T11:34:18Z</time>
      </trkpt>
      <trkpt lat="45.38477" lon="7.10008">
        <ele>2059</ele>
        <time>2018-03-14T11:36:20Z</time>
      </trkpt>
      <trkpt lat="45.38478" lon="7.10009">
        <ele>2059</ele>
        <time>2018-03-14T11:37:43Z</time>
      </trkpt>
      <trkpt lat="45.38476" lon="7.10014">
        <ele>2058</ele>
        <time>2018-03-14T11:40:14Z</time>
      </trkpt>
      <trkpt lat="45.38476" lon="7.10013">
        <ele>2058</ele>
        <time>2018-03-14T11:41:32Z</time>
      </trkpt>
      <trkpt lat="45.38476" lon="7.10012">
        <ele>2059</ele>
        <time>2018-03-14T11:42:47Z</time>
      </trkpt>
      <trkpt lat="45.38477" lon="7.10013">
        <ele>2059</ele>
        <time>2018-03-14T11:44:03Z</time>
      </trkpt>
      <trkpt lat="45.38477" lon="7.10013">
        <ele>2059</ele>
        <time>2018-03-14T11:45:17Z</time>
      </trkpt>
      <trkpt lat="45.38478" lon="7.10012">
        <ele>2059</ele>
        <time>2018-03-14T11:45:55Z</time>
      </trkpt>
      <trkpt lat="45.38478" lon="7.10012">
        <ele>2059</ele>
        <time>2018-03-14T11:46:32Z</time>
      </trkpt>
      <trkpt lat="45.38482" lon="7.10011">
        <ele>2059</ele>
        <time>2018-03-14T11:47:11Z</time>
      </trkpt>
      <trkpt lat="45.38481" lon="7.10013">
        <ele>2059</ele>
        <time>2018-03-14T11:48:08Z</time>
      </trkpt>
      <trkpt lat="45.38478" lon="7.10012">
        <ele>2059</ele>
        <time>2018-03-14T11:48:51Z</time>
      </trkpt>
      <trkpt lat="45.38478" lon="7.10011">
        <ele>2059</ele>
        <time>2018-03-14T11:49:45Z</time>
      </trkpt>
      <trkpt lat="45.38477" lon="7.10013">
        <ele>2059</ele>
        <time>2018-03-14T11:50:30Z</time>
      </trkpt>
      <trkpt lat="45.38476" lon="7.10014">
        <ele>2058</ele>
        <time>2018-03-14T11:51:16Z</time>
      </trkpt>
      <trkpt lat="45.38476" lon="7.10015">
        <ele>2058</ele>
        <time>2018-03-14T11:51:54Z</time>
      </trkpt>
      <trkpt lat="45.38477" lon="7.10016">
        <ele>2059</ele>
        <time>2018-03-14T11:52:38Z</time>
      </trkpt>
      <trkpt lat="45.38477" lon="7.10016">
        <ele>2059</ele>
        <time>2018-03-14T11:53:37Z</time>
      </trkpt>
      <trkpt lat="45.38477" lon="7.10016">
        <ele>2059</ele>
        <time>2018-03-14T11:54:22Z</time>
      </trkpt>
      <trkpt lat="45.3847" lon="7.10007">
        <ele>2058</ele>
        <time>2018-03-14T11:54:46Z</time>
      </trkpt>
      <trkpt lat="45.38461" lon="7.09991">
        <ele>2057</ele>
        <time>2018-03-14T11:55:11Z</time>
      </trkpt>
      <trkpt lat="45.38456" lon="7.09986">
        <ele>2056</ele>
        <time>2018-03-14T11:55:40Z</time>
      </trkpt>
      <trkpt lat="45.38454" lon="7.09983">
        <ele>2056</ele>
        <time>2018-03-14T11:56:20Z</time>
      </trkpt>
      <trkpt lat="45.38449" lon="7.09985">
        <ele>2055</ele>
        <time>2018-03-14T11:57:10Z</time>
      </trkpt>
      <trkpt lat="45.38444" lon="7.09985">
        <ele>2054</ele>
        <time>2018-03-14T11:57:31Z</time>
      </trkpt>
      <trkpt lat="45.38439" lon="7.09988">
        <ele>2054</ele>
        <time>2018-03-14T11:57:51Z</time>
      </trkpt>
      <trkpt lat="45.3844" lon="7.09989">
        <ele>2054</ele>
        <time>2018-03-14T11:59:29Z</time>
      </trkpt>
      <trkpt lat="45.38442" lon="7.09986">
        <ele>2054</ele>
        <time>2018-03-14T12:01:16Z</time>
      </trkpt>
      <trkpt lat="45.38442" lon="7.09986">
        <ele>2054</ele>
        <time>2018-03-14T12:01:57Z</time>
      </trkpt>
      <trkpt lat="45.38446" lon="7.10003">
        <ele>2054</ele>
        <time>2018-03-14T12:02:20Z</time>
      </trkpt>
      <trkpt lat="45.38445" lon="7.10011">
        <ele>2054</ele>
        <time>2018-03-14T12:02:40Z</time>
      </trkpt>
      <trkpt lat="45.3845" lon="7.10033">
        <ele>2055</ele>
        <time>2018-03-14T12:03:02Z</time>
      </trkpt>
      <trkpt lat="45.38457" lon="7.10058">
        <ele>2056</ele>
        <time>2018-03-14T12:03:23Z</time>
      </trkpt>
      <trkpt lat="45.38459" lon="7.10071">
        <ele>2056</ele>
        <time>2018-03-14T12:03:33Z</time>
      </trkpt>
      <trkpt lat="45.38462" lon="7.10098">
        <ele>2057</ele>
        <time>2018-03-14T12:03:52Z</time>
      </trkpt>
      <trkpt lat="45.38463" lon="7.10125">
        <ele>2056</ele>
        <time>2018-03-14T12:04:12Z</time>
      </trkpt>
      <trkpt lat="45.38461" lon="7.10149">
        <ele>2056</ele>
        <time>2018-03-14T12:04:30Z</time>
      </trkpt>
      <trkpt lat="45.38461" lon="7.10153">
        <ele>2056</ele>
        <time>2018-03-14T12:04:33Z</time>
      </trkpt>
      <trkpt lat="45.38451" lon="7.10181">
        <ele>2054</ele>
        <time>2018-03-14T12:04:54Z</time>
      </trkpt>
      <trkpt lat="45.38447" lon="7.10211">
        <ele>2054</ele>
        <time>2018-03-14T12:05:15Z</time>
      </trkpt>
      <trkpt lat="45.38449" lon="7.10221">
        <ele>2054</ele>
        <time>2018-03-14T12:05:22Z</time>
      </trkpt>
      <trkpt lat="45.38454" lon="7.10232">
        <ele>2054</ele>
        <time>2018-03-14T12:05:32Z</time>
      </trkpt>
      <trkpt lat="45.38461" lon="7.10249">
        <ele>2055</ele>
        <time>2018-03-14T12:05:47Z</time>
      </trkpt>
      <trkpt lat="45.3846" lon="7.10268">
        <ele>2056</ele>
        <time>2018-03-14T12:05:58Z</time>
      </trkpt>
      <trkpt lat="45.38451" lon="7.1029">
        <ele>2056</ele>
        <time>2018-03-14T12:06:17Z</time>
      </trkpt>
      <trkpt lat="45.38438" lon="7.10314">
        <ele>2056</ele>
        <time>2018-03-14T12:06:38Z</time>
      </trkpt>
      <trkpt lat="45.38426" lon="7.1033">
        <ele>2056</ele>
        <time>2018-03-14T12:06:56Z</time>
      </trkpt>
      <trkpt lat="45.38414" lon="7.10342">
        <ele>2057</ele>
        <time>2018-03-14T12:07:12Z</time>
      </trkpt>
      <trkpt lat="45.38411" lon="7.10345">
        <ele>2057</ele>
        <time>2018-03-14T12:07:16Z</time>
      </trkpt>
      <trkpt lat="45.38403" lon="7.10352">
        <ele>2058</ele>
        <time>2018-03-14T12:07:39Z</time>
      </trkpt>
      <trkpt lat="45.38404" lon="7.1035">
        <ele>2058</ele>
        <time>2018-03-14T12:08:25Z</time>
      </trkpt>
      <trkpt lat="45.38403" lon="7.10354">
        <ele>2058</ele>
        <time>2018-03-14T12:09:09Z</time>
      </trkpt>
      <trkpt lat="45.38394" lon="7.10365">
        <ele>2059</ele>
        <time>2018-03-14T12:09:25Z</time>
      </trkpt>
      <trkpt lat="45.38391" lon="7.10368">
        <ele>2059</ele>
        <time>2018-03-14T12:09:29Z</time>
      </trkpt>
      <trkpt lat="45.38389" lon="7.10372">
        <ele>2060</ele>
        <time>2018-03-14T12:09:33Z</time>
      </trkpt>
      <trkpt lat="45.38375" lon="7.1039">
        <ele>2060</ele>
        <time>2018-03-14T12:09:54Z</time>
      </trkpt>
      <trkpt lat="45.3837" lon="7.10394">
        <ele>2060</ele>
        <time>2018-03-14T12:10:00Z</time>
      </trkpt>
      <trkpt lat="45.38364" lon="7.10404">
        <ele>2060</ele>
        <time>2018-03-14T12:10:15Z</time>
      </trkpt>
      <trkpt lat="45.38349" lon="7.10415">
        <ele>2060</ele>
        <time>2018-03-14T12:10:31Z</time>
      </trkpt>
      <trkpt lat="45.38341" lon="7.10427">
        <ele>2064</ele>
        <time>2018-03-14T12:10:44Z</time>
      </trkpt>
      <trkpt lat="45.38333" lon="7.10433">
        <ele>2063</ele>
        <time>2018-03-14T12:10:51Z</time>
      </trkpt>
      <trkpt lat="45.38314" lon="7.10448">
        <ele>2065</ele>
        <time>2018-03-14T12:11:10Z</time>
      </trkpt>
      <trkpt lat="45.3831" lon="7.10453">
        <ele>2065</ele>
        <time>2018-03-14T12:11:16Z</time>
      </trkpt>
      <trkpt lat="45.38302" lon="7.10464">
        <ele>2066</ele>
        <time>2018-03-14T12:11:27Z</time>
      </trkpt>
      <trkpt lat="45.38288" lon="7.10478">
        <ele>2066</ele>
        <time>2018-03-14T12:11:46Z</time>
      </trkpt>
      <trkpt lat="45.38272" lon="7.1049">
        <ele>2066</ele>
        <time>2018-03-14T12:12:03Z</time>
      </trkpt>
      <trkpt lat="45.38269" lon="7.10497">
        <ele>2066</ele>
        <time>2018-03-14T12:12:10Z</time>
      </trkpt>
      <trkpt lat="45.38253" lon="7.10511">
        <ele>2070</ele>
        <time>2018-03-14T12:12:27Z</time>
      </trkpt>
      <trkpt lat="45.38238" lon="7.1052">
        <ele>2068</ele>
        <time>2018-03-14T12:12:42Z</time>
      </trkpt>
      <trkpt lat="45.38217" lon="7.10528">
        <ele>2069</ele>
        <time>2018-03-14T12:13:01Z</time>
      </trkpt>
      <trkpt lat="45.38207" lon="7.10528">
        <ele>2069</ele>
        <time>2018-03-14T12:13:22Z</time>
      </trkpt>
      <trkpt lat="45.38205" lon="7.1053">
        <ele>2069</ele>
        <time>2018-03-14T12:14:03Z</time>
      </trkpt>
      <trkpt lat="45.38198" lon="7.10531">
        <ele>2068</ele>
        <time>2018-03-14T12:14:21Z</time>
      </trkpt>
      <trkpt lat="45.38196" lon="7.10537">
        <ele>2069</ele>
        <time>2018-03-14T12:14:48Z</time>
      </trkpt>
      <trkpt lat="45.38195" lon="7.10539">
        <ele>2069</ele>
        <time>2018-03-14T12:14:50Z</time>
      </trkpt>
      <trkpt lat="45.38189" lon="7.10543">
        <ele>2069</ele>
        <time>2018-03-14T12:14:54Z</time>
      </trkpt>
      <trkpt lat="45.38181" lon="7.10548">
        <ele>2069</ele>
        <time>2018-03-14T12:15:01Z</time>
      </trkpt>
      <trkpt lat="45.38166" lon="7.10562">
        <ele>2068</ele>
        <time>2018-03-14T12:15:18Z</time>
      </trkpt>
      <trkpt lat="45.38153" lon="7.10568">
        <ele>2069</ele>
        <time>2018-03-14T12:15:33Z</time>
      </trkpt>
      <trkpt lat="45.38152" lon="7.10569">
        <ele>2069</ele>
        <time>2018-03-14T12:15:34Z</time>
      </trkpt>
      <trkpt lat="45.38133" lon="7.10584">
        <ele>2074</ele>
        <time>2018-03-14T12:15:54Z</time>
      </trkpt>
      <trkpt lat="45.38116" lon="7.10601">
        <ele>2075</ele>
        <time>2018-03-14T12:16:13Z</time>
      </trkpt>
      <trkpt lat="45.38104" lon="7.1062">
        <ele>2076</ele>
        <time>2018-03-14T12:16:31Z</time>
      </trkpt>
      <trkpt lat="45.38092" lon="7.10633">
        <ele>2076</ele>
        <time>2018-03-14T12:16:48Z</time>
      </trkpt>
      <trkpt lat="45.3809" lon="7.10634">
        <ele>2076</ele>
        <time>2018-03-14T12:16:51Z</time>
      </trkpt>
      <trkpt lat="45.38074" lon="7.10649">
        <ele>2076</ele>
        <time>2018-03-14T12:17:09Z</time>
      </trkpt>
      <trkpt lat="45.38062" lon="7.10665">
        <ele>2076</ele>
        <time>2018-03-14T12:17:26Z</time>
      </trkpt>
      <trkpt lat="45.3806" lon="7.10668">
        <ele>2080</ele>
        <time>2018-03-14T12:17:31Z</time>
      </trkpt>
      <trkpt lat="45.38057" lon="7.10671">
        <ele>2080</ele>
        <time>2018-03-14T12:17:34Z</time>
      </trkpt>
      <trkpt lat="45.38045" lon="7.10681">
        <ele>2080</ele>
        <time>2018-03-14T12:17:52Z</time>
      </trkpt>
      <trkpt lat="45.38028" lon="7.10701">
        <ele>2081</ele>
        <time>2018-03-14T12:18:09Z</time>
      </trkpt>
      <trkpt lat="45.38021" lon="7.10707">
        <ele>2081</ele>
        <time>2018-03-14T12:18:16Z</time>
      </trkpt>
      <trkpt lat="45.38013" lon="7.10717">
        <ele>2082</ele>
        <time>2018-03-14T12:18:23Z</time>
      </trkpt>
      <trkpt lat="45.37997" lon="7.10737">
        <ele>2082</ele>
        <time>2018-03-14T12:18:41Z</time>
      </trkpt>
      <trkpt lat="45.37986" lon="7.10755">
        <ele>2084</ele>
        <time>2018-03-14T12:18:55Z</time>
      </trkpt>
      <trkpt lat="45.37975" lon="7.10772">
        <ele>2086</ele>
        <time>2018-03-14T12:19:12Z</time>
      </trkpt>
      <trkpt lat="45.3796" lon="7.10791">
        <ele>2087</ele>
        <time>2018-03-14T12:19:31Z</time>
      </trkpt>
      <trkpt lat="45.37953" lon="7.10797">
        <ele>2087</ele>
        <time>2018-03-14T12:19:39Z</time>
      </trkpt>
      <trkpt lat="45.37947" lon="7.10802">
        <ele>2087</ele>
        <time>2018-03-14T12:19:44Z</time>
      </trkpt>
      <trkpt lat="45.37928" lon="7.10811">
        <ele>2087</ele>
        <time>2018-03-14T12:20:00Z</time>
      </trkpt>
      <trkpt lat="45.37905" lon="7.10815">
        <ele>2086</ele>
        <time>2018-03-14T12:20:16Z</time>
      </trkpt>
      <trkpt lat="45.37894" lon="7.10817">
        <ele>2086</ele>
        <time>2018-03-14T12:20:35Z</time>
      </trkpt>
      <trkpt lat="45.37888" lon="7.10816">
        <ele>2086</ele>
        <time>2018-03-14T12:20:56Z</time>
      </trkpt>
      <trkpt lat="45.37888" lon="7.10817">
        <ele>2086</ele>
        <time>2018-03-14T12:22:52Z</time>
      </trkpt>
      <trkpt lat="45.37888" lon="7.10817">
        <ele>2086</ele>
        <time>2018-03-14T12:23:30Z</time>
      </trkpt>
      <trkpt lat="45.37889" lon="7.10818">
        <ele>2086</ele>
        <time>2018-03-14T12:24:07Z</time>
      </trkpt>
      <trkpt lat="45.37884" lon="7.10817">
        <ele>2086</ele>
        <time>2018-03-14T12:24:56Z</time>
      </trkpt>
      <trkpt lat="45.3788" lon="7.10813">
        <ele>2085</ele>
        <time>2018-03-14T12:25:38Z</time>
      </trkpt>
      <trkpt lat="45.37881" lon="7.1081">
        <ele>2085</ele>
        <time>2018-03-14T12:26:02Z</time>
      </trkpt>
      <trkpt lat="45.37884" lon="7.10804">
        <ele>2085</ele>
        <time>2018-03-14T12:26:31Z</time>
      </trkpt>
      <trkpt lat="45.37897" lon="7.10786">
        <ele>2085</ele>
        <time>2018-03-14T12:26:50Z</time>
      </trkpt>
      <trkpt lat="45.37902" lon="7.10782">
        <ele>2085</ele>
        <time>2018-03-14T12:26:56Z</time>
      </trkpt>
      <trkpt lat="45.37914" lon="7.10769">
        <ele>2084</ele>
        <time>2018-03-14T12:27:08Z</time>
      </trkpt>
      <trkpt lat="45.37934" lon="7.1075">
        <ele>2083</ele>
        <time>2018-03-14T12:27:32Z</time>
      </trkpt>
      <trkpt lat="45.37943" lon="7.10727">
        <ele>2082</ele>
        <time>2018-03-14T12:27:52Z</time>
      </trkpt>
      <trkpt lat="45.37946" lon="7.10723">
        <ele>2082</ele>
        <time>2018-03-14T12:27:56Z</time>
      </trkpt>
      <trkpt lat="45.37967" lon="7.10698">
        <ele>2081</ele>
        <time>2018-03-14T12:28:17Z</time>
      </trkpt>
      <trkpt lat="45.37971" lon="7.10691">
        <ele>2081</ele>
        <time>2018-03-14T12:28:23Z</time>
      </trkpt>
      <trkpt lat="45.37973" lon="7.10689">
        <ele>2081</ele>
        <time>2018-03-14T12:28:25Z</time>
      </trkpt>
      <trkpt lat="45.37988" lon="7.10666">
        <ele>2079</ele>
        <time>2018-03-14T12:28:44Z</time>
      </trkpt>
      <trkpt lat="45.37991" lon="7.1066">
        <ele>2079</ele>
        <time>2018-03-14T12:28:48Z</time>
      </trkpt>
      <trkpt lat="45.37994" lon="7.10651">
        <ele>2080</ele>
        <time>2018-03-14T12:28:54Z</time>
      </trkpt>
      <trkpt lat="45.37998" lon="7.10643">
        <ele>2080</ele>
        <time>2018-03-14T12:28:59Z</time>
      </trkpt>
      <trkpt lat="45.38002" lon="7.10635">
        <ele>2076</ele>
        <time>2018-03-14T12:29:05Z</time>
      </trkpt>
      <trkpt lat="45.38007" lon="7.10627">
        <ele>2076</ele>
        <time>2018-03-14T12:29:12Z</time>
      </trkpt>
      <trkpt lat="45.3801" lon="7.1062">
        <ele>2076</ele>
        <time>2018-03-14T12:29:17Z</time>
      </trkpt>
      <trkpt lat="45.38026" lon="7.10595">
        <ele>2076</ele>
        <time>2018-03-14T12:29:38Z</time>
      </trkpt>
      <trkpt lat="45.38031" lon="7.10589">
        <ele>2076</ele>
        <time>2018-03-14T12:29:44Z</time>
      </trkpt>
      <trkpt lat="45.38043" lon="7.10555">
        <ele>2076</ele>
        <time>2018-03-14T12:30:08Z</time>
      </trkpt>
      <trkpt lat="45.38056" lon="7.10522">
        <ele>2075</ele>
        <time>2018-03-14T12:30:27Z</time>
      </trkpt>
      <trkpt lat="45.38056" lon="7.1052">
        <ele>2075</ele>
        <time>2018-03-14T12:30:28Z</time>
      </trkpt>
      <trkpt lat="45.3806" lon="7.10511">
        <ele>2074</ele>
        <time>2018-03-14T12:30:34Z</time>
      </trkpt>
      <trkpt lat="45.38067" lon="7.1049">
        <ele>2074</ele>
        <time>2018-03-14T12:30:47Z</time>
      </trkpt>
      <trkpt lat="45.38069" lon="7.10483">
        <ele>2075</ele>
        <time>2018-03-14T12:30:52Z</time>
      </trkpt>
      <trkpt lat="45.38072" lon="7.10477">
        <ele>2075</ele>
        <time>2018-03-14T12:30:56Z</time>
      </trkpt>
      <trkpt lat="45.38082" lon="7.10465">
        <ele>2075</ele>
        <time>2018-03-14T12:31:10Z</time>
      </trkpt>
      <trkpt lat="45.38085" lon="7.10464">
        <ele>2068</ele>
        <time>2018-03-14T12:31:13Z</time>
      </trkpt>
      <trkpt lat="45.38099" lon="7.1043">
        <ele>2068</ele>
        <time>2018-03-14T12:31:34Z</time>
      </trkpt>
      <trkpt lat="45.38112" lon="7.10395">
        <ele>2068</ele>
        <time>2018-03-14T12:31:55Z</time>
      </trkpt>
      <trkpt lat="45.38123" lon="7.1037">
        <ele>2069</ele>
        <time>2018-03-14T12:32:13Z</time>
      </trkpt>
      <trkpt lat="45.38135" lon="7.1034">
        <ele>2068</ele>
        <time>2018-03-14T12:32:34Z</time>
      </trkpt>
      <trkpt lat="45.38143" lon="7.10307">
        <ele>2071</ele>
        <time>2018-03-14T12:32:55Z</time>
      </trkpt>
      <trkpt lat="45.38147" lon="7.10296">
        <ele>2071</ele>
        <time>2018-03-14T12:33:16Z</time>
      </trkpt>
      <trkpt lat="45.38147" lon="7.10297">
        <ele>2071</ele>
        <time>2018-03-14T12:33:49Z</time>
      </trkpt>
      <trkpt lat="45.38146" lon="7.10297">
        <ele>2071</ele>
        <time>2018-03-14T12:35:03Z</time>
      </trkpt>
      <trkpt lat="45.38145" lon="7.10298">
        <ele>2071</ele>
        <time>2018-03-14T12:36:03Z</time>
      </trkpt>
      <trkpt lat="45.38145" lon="7.10298">
        <ele>2071</ele>
        <time>2018-03-14T12:36:51Z</time>
      </trkpt>
      <trkpt lat="45.38144" lon="7.10297">
        <ele>2071</ele>
        <time>2018-03-14T12:37:54Z</time>
      </trkpt>
      <trkpt lat="45.38146" lon="7.10296">
        <ele>2071</ele>
        <time>2018-03-14T12:38:45Z</time>
      </trkpt>
      <trkpt lat="45.38149" lon="7.10283">
        <ele>2070</ele>
        <time>2018-03-14T12:39:04Z</time>
      </trkpt>
      <trkpt lat="45.38164" lon="7.10251">
        <ele>2062</ele>
        <time>2018-03-14T12:39:23Z</time>
      </trkpt>
      <trkpt lat="45.38175" lon="7.10214">
        <ele>2059</ele>
        <time>2018-03-14T12:39:41Z</time>
      </trkpt>
      <trkpt lat="45.38187" lon="7.10182">
        <ele>2059</ele>
        <time>2018-03-14T12:40:02Z</time>
      </trkpt>
      <trkpt lat="45.38192" lon="7.10161">
        <ele>2058</ele>
        <time>2018-03-14T12:40:19Z</time>
      </trkpt>
      <trkpt lat="45.38198" lon="7.10137">
        <ele>2057</ele>
        <time>2018-03-14T12:40:36Z</time>
      </trkpt>
      <trkpt lat="45.38198" lon="7.10132">
        <ele>2057</ele>
        <time>2018-03-14T12:40:39Z</time>
      </trkpt>
      <trkpt lat="45.38199" lon="7.10128">
        <ele>2057</ele>
        <time>2018-03-14T12:40:41Z</time>
      </trkpt>
      <trkpt lat="45.38201" lon="7.10069">
        <ele>2054</ele>
        <time>2018-03-14T12:41:01Z</time>
      </trkpt>
      <trkpt lat="45.382" lon="7.10027">
        <ele>2053</ele>
        <time>2018-03-14T12:41:19Z</time>
      </trkpt>
      <trkpt lat="45.38196" lon="7.09979">
        <ele>2050</ele>
        <time>2018-03-14T12:41:36Z</time>
      </trkpt>
      <trkpt lat="45.38194" lon="7.09957">
        <ele>2050</ele>
        <time>2018-03-14T12:41:47Z</time>
      </trkpt>
      <trkpt lat="45.3819" lon="7.09917">
        <ele>2049</ele>
        <time>2018-03-14T12:42:07Z</time>
      </trkpt>
      <trkpt lat="45.38189" lon="7.0991">
        <ele>2048</ele>
        <time>2018-03-14T12:42:11Z</time>
      </trkpt>
      <trkpt lat="45.3819" lon="7.0989">
        <ele>2047</ele>
        <time>2018-03-14T12:42:22Z</time>
      </trkpt>
      <trkpt lat="45.38189" lon="7.0985">
        <ele>2046</ele>
        <time>2018-03-14T12:42:43Z</time>
      </trkpt>
      <trkpt lat="45.38189" lon="7.09845">
        <ele>2046</ele>
        <time>2018-03-14T12:42:46Z</time>
      </trkpt>
      <trkpt lat="45.38189" lon="7.09827">
        <ele>2044</ele>
        <time>2018-03-14T12:42:55Z</time>
      </trkpt>
      <trkpt lat="45.38189" lon="7.09791">
        <ele>2044</ele>
        <time>2018-03-14T12:43:14Z</time>
      </trkpt>
      <trkpt lat="45.38188" lon="7.09758">
        <ele>2044</ele>
        <time>2018-03-14T12:43:31Z</time>
      </trkpt>
      <trkpt lat="45.38188" lon="7.09753">
        <ele>2044</ele>
        <time>2018-03-14T12:43:34Z</time>
      </trkpt>
      <trkpt lat="45.38188" lon="7.09714">
        <ele>2042</ele>
        <time>2018-03-14T12:43:54Z</time>
      </trkpt>
      <trkpt lat="45.38183" lon="7.09685">
        <ele>2041</ele>
        <time>2018-03-14T12:44:10Z</time>
      </trkpt>
      <trkpt lat="45.38183" lon="7.0968">
        <ele>2041</ele>
        <time>2018-03-14T12:44:13Z</time>
      </trkpt>
      <trkpt lat="45.38183" lon="7.09676">
        <ele>2041</ele>
        <time>2018-03-14T12:44:15Z</time>
      </trkpt>
      <trkpt lat="45.38176" lon="7.09639">
        <ele>2038</ele>
        <time>2018-03-14T12:44:33Z</time>
      </trkpt>
      <trkpt lat="45.38171" lon="7.0961">
        <ele>2037</ele>
        <time>2018-03-14T12:44:50Z</time>
      </trkpt>
      <trkpt lat="45.38164" lon="7.09589">
        <ele>2037</ele>
        <time>2018-03-14T12:45:02Z</time>
      </trkpt>
      <trkpt lat="45.38159" lon="7.09571">
        <ele>2037</ele>
        <time>2018-03-14T12:45:11Z</time>
      </trkpt>
      <trkpt lat="45.38158" lon="7.09562">
        <ele>2037</ele>
        <time>2018-03-14T12:45:16Z</time>
      </trkpt>
      <trkpt lat="45.38152" lon="7.09526">
        <ele>2037</ele>
        <time>2018-03-14T12:45:35Z</time>
      </trkpt>
      <trkpt lat="45.38146" lon="7.09493">
        <ele>2036</ele>
        <time>2018-03-14T12:45:52Z</time>
      </trkpt>
      <trkpt lat="45.38138" lon="7.09456">
        <ele>2037</ele>
        <time>2018-03-14T12:46:13Z</time>
      </trkpt>
      <trkpt lat="45.38135" lon="7.09442">
        <ele>2036</ele>
        <time>2018-03-14T12:46:21Z</time>
      </trkpt>
      <trkpt lat="45.38124" lon="7.0941">
        <ele>2036</ele>
        <time>2018-03-14T12:46:39Z</time>
      </trkpt>
      <trkpt lat="45.38118" lon="7.09375">
        <ele>2036</ele>
        <time>2018-03-14T12:46:57Z</time>
      </trkpt>
      <trkpt lat="45.38113" lon="7.09359">
        <ele>2036</ele>
        <time>2018-03-14T12:47:07Z</time>
      </trkpt>
      <trkpt lat="45.38103" lon="7.09321">
        <ele>2036</ele>
        <time>2018-03-14T12:47:28Z</time>
      </trkpt>
      <trkpt lat="45.38102" lon="7.09309">
        <ele>2035</ele>
        <time>2018-03-14T12:47:34Z</time>
      </trkpt>
      <trkpt lat="45.38102" lon="7.093">
        <ele>2035</ele>
        <time>2018-03-14T12:47:38Z</time>
      </trkpt>
      <trkpt lat="45.38099" lon="7.09283">
        <ele>2035</ele>
        <time>2018-03-14T12:47:49Z</time>
      </trkpt>
      <trkpt lat="45.38097" lon="7.09271">
        <ele>2035</ele>
        <time>2018-03-14T12:47:56Z</time>
      </trkpt>
      <trkpt lat="45.38096" lon="7.09266">
        <ele>2035</ele>
        <time>2018-03-14T12:47:59Z</time>
      </trkpt>
      <trkpt lat="45.38095" lon="7.09263">
        <ele>2035</ele>
        <time>2018-03-14T12:48:01Z</time>
      </trkpt>
      <trkpt lat="45.38092" lon="7.09259">
        <ele>2035</ele>
        <time>2018-03-14T12:48:05Z</time>
      </trkpt>
      <trkpt lat="45.38079" lon="7.0924">
        <ele>2035</ele>
        <time>2018-03-14T12:48:27Z</time>
      </trkpt>
      <trkpt lat="45.38071" lon="7.09232">
        <ele>2036</ele>
        <time>2018-03-14T12:48:45Z</time>
      </trkpt>
      <trkpt lat="45.38068" lon="7.09227">
        <ele>2036</ele>
        <time>2018-03-14T12:49:00Z</time>
      </trkpt>
      <trkpt lat="45.38065" lon="7.09223">
        <ele>2036</ele>
        <time>2018-03-14T12:49:04Z</time>
      </trkpt>
      <trkpt lat="45.38053" lon="7.09209">
        <ele>2036</ele>
        <time>2018-03-14T12:49:17Z</time>
      </trkpt>
      <trkpt lat="45.38033" lon="7.09183">
        <ele>2035</ele>
        <time>2018-03-14T12:49:38Z</time>
      </trkpt>
      <trkpt lat="45.38031" lon="7.0918">
        <ele>2035</ele>
        <time>2018-03-14T12:49:40Z</time>
      </trkpt>
      <trkpt lat="45.38027" lon="7.09174">
        <ele>2034</ele>
        <time>2018-03-14T12:49:44Z</time>
      </trkpt>
      <trkpt lat="45.38014" lon="7.09142">
        <ele>2029</ele>
        <time>2018-03-14T12:50:04Z</time>
      </trkpt>
      <trkpt lat="45.38003" lon="7.0911">
        <ele>2027</ele>
        <time>2018-03-14T12:50:24Z</time>
      </trkpt>
      <trkpt lat="45.37998" lon="7.09101">
        <ele>2027</ele>
        <time>2018-03-14T12:50:44Z</time>
      </trkpt>
      <trkpt lat="45.37998" lon="7.09099">
        <ele>2027</ele>
        <time>2018-03-14T12:51:34Z</time>
      </trkpt>
      <trkpt lat="45.37992" lon="7.09088">
        <ele>2025</ele>
        <time>2018-03-14T12:52:20Z</time>
      </trkpt>
      <trkpt lat="45.3799" lon="7.09083">
        <ele>2024</ele>
        <time>2018-03-14T12:52:24Z</time>
      </trkpt>
      <trkpt lat="45.3798" lon="7.09065">
        <ele>2024</ele>
        <time>2018-03-14T12:52:39Z</time>
      </trkpt>
      <trkpt lat="45.37977" lon="7.09058">
        <ele>2024</ele>
        <time>2018-03-14T12:52:43Z</time>
      </trkpt>
      <trkpt lat="45.37962" lon="7.09028">
        <ele>2024</ele>
        <time>2018-03-14T12:53:05Z</time>
      </trkpt>
      <trkpt lat="45.3796" lon="7.09024">
        <ele>2024</ele>
        <time>2018-03-14T12:53:31Z</time>
      </trkpt>
      <trkpt lat="45.37957" lon="7.09019">
        <ele>2024</ele>
        <time>2018-03-14T12:53:49Z</time>
      </trkpt>
      <trkpt lat="45.37949" lon="7.09012">
        <ele>2023</ele>
        <time>2018-03-14T12:53:56Z</time>
      </trkpt>
      <trkpt lat="45.37936" lon="7.09">
        <ele>2020</ele>
        <time>2018-03-14T12:54:13Z</time>
      </trkpt>
      <trkpt lat="45.37914" lon="7.08977">
        <ele>2021</ele>
        <time>2018-03-14T12:54:34Z</time>
      </trkpt>
      <trkpt lat="45.37911" lon="7.08974">
        <ele>2021</ele>
        <time>2018-03-14T12:54:37Z</time>
      </trkpt>
      <trkpt lat="45.37896" lon="7.08943">
        <ele>2020</ele>
        <time>2018-03-14T12:54:57Z</time>
      </trkpt>
      <trkpt lat="45.3789" lon="7.08932">
        <ele>2020</ele>
        <time>2018-03-14T12:55:05Z</time>
      </trkpt>
      <trkpt lat="45.3788" lon="7.08921">
        <ele>2021</ele>
        <time>2018-03-14T12:55:15Z</time>
      </trkpt>
      <trkpt lat="45.37872" lon="7.08913">
        <ele>2015</ele>
        <time>2018-03-14T12:55:22Z</time>
      </trkpt>
      <trkpt lat="45.37852" lon="7.08885">
        <ele>2014</ele>
        <time>2018-03-14T12:55:44Z</time>
      </trkpt>
      <trkpt lat="45.3785" lon="7.08878">
        <ele>2014</ele>
        <time>2018-03-14T12:55:49Z</time>
      </trkpt>
      <trkpt lat="45.37849" lon="7.08873">
        <ele>2013</ele>
        <time>2018-03-14T12:55:52Z</time>
      </trkpt>
      <trkpt lat="45.3784" lon="7.08844">
        <ele>2010</ele>
        <time>2018-03-14T12:56:13Z</time>
      </trkpt>
      <trkpt lat="45.37838" lon="7.08841">
        <ele>2009</ele>
        <time>2018-03-14T12:56:15Z</time>
      </trkpt>
      <trkpt lat="45.37831" lon="7.08837">
        <ele>2011</ele>
        <time>2018-03-14T12:56:21Z</time>
      </trkpt>
      <trkpt lat="45.37826" lon="7.08835">
        <ele>2012</ele>
        <time>2018-03-14T12:56:26Z</time>
      </trkpt>
      <trkpt lat="45.37819" lon="7.08818">
        <ele>2008</ele>
        <time>2018-03-14T12:56:38Z</time>
      </trkpt>
      <trkpt lat="45.37818" lon="7.08785">
        <ele>2005</ele>
        <time>2018-03-14T12:56:56Z</time>
      </trkpt>
      <trkpt lat="45.3781" lon="7.08758">
        <ele>2002</ele>
        <time>2018-03-14T12:57:14Z</time>
      </trkpt>
      <trkpt lat="45.37809" lon="7.08755">
        <ele>2002</ele>
        <time>2018-03-14T12:57:16Z</time>
      </trkpt>
      <trkpt lat="45.3781" lon="7.08744">
        <ele>1994</ele>
        <time>2018-03-14T12:57:23Z</time>
      </trkpt>
      <trkpt lat="45.37808" lon="7.08733">
        <ele>1994</ele>
        <time>2018-03-14T12:57:43Z</time>
      </trkpt>
      <trkpt lat="45.37802" lon="7.08725">
        <ele>1995</ele>
        <time>2018-03-14T12:58:27Z</time>
      </trkpt>
      <trkpt lat="45.37799" lon="7.08717">
        <ele>1995</ele>
        <time>2018-03-14T12:58:33Z</time>
      </trkpt>
      <trkpt lat="45.37792" lon="7.08697">
        <ele>1994</ele>
        <time>2018-03-14T12:58:47Z</time>
      </trkpt>
      <trkpt lat="45.37788" lon="7.08682">
        <ele>1994</ele>
        <time>2018-03-14T12:58:57Z</time>
      </trkpt>
      <trkpt lat="45.37789" lon="7.08675">
        <ele>1994</ele>
        <time>2018-03-14T12:59:01Z</time>
      </trkpt>
      <trkpt lat="45.37792" lon="7.08648">
        <ele>1987</ele>
        <time>2018-03-14T12:59:22Z</time>
      </trkpt>
      <trkpt lat="45.37792" lon="7.08628">
        <ele>1986</ele>
        <time>2018-03-14T12:59:43Z</time>
      </trkpt>
      <trkpt lat="45.37794" lon="7.0861">
        <ele>1985</ele>
        <time>2018-03-14T12:59:54Z</time>
      </trkpt>
      <trkpt lat="45.37793" lon="7.08607">
        <ele>1985</ele>
        <time>2018-03-14T12:59:56Z</time>
      </trkpt>
      <trkpt lat="45.37794" lon="7.08603">
        <ele>1985</ele>
        <time>2018-03-14T12:59:59Z</time>
      </trkpt>
      <trkpt lat="45.37792" lon="7.08587">
        <ele>1984</ele>
        <time>2018-03-14T13:00:08Z</time>
      </trkpt>
      <trkpt lat="45.37791" lon="7.08577">
        <ele>1979</ele>
        <time>2018-03-14T13:00:14Z</time>
      </trkpt>
      <trkpt lat="45.37791" lon="7.08561">
        <ele>1979</ele>
        <time>2018-03-14T13:00:23Z</time>
      </trkpt>
      <trkpt lat="45.37789" lon="7.08528">
        <ele>1978</ele>
        <time>2018-03-14T13:00:43Z</time>
      </trkpt>
      <trkpt lat="45.37787" lon="7.08518">
        <ele>1977</ele>
        <time>2018-03-14T13:00:48Z</time>
      </trkpt>
      <trkpt lat="45.37781" lon="7.08496">
        <ele>1972</ele>
        <time>2018-03-14T13:01:00Z</time>
      </trkpt>
      <trkpt lat="45.3778" lon="7.08485">
        <ele>1972</ele>
        <time>2018-03-14T13:01:06Z</time>
      </trkpt>
      <trkpt lat="45.37762" lon="7.08454">
        <ele>1969</ele>
        <time>2018-03-14T13:01:27Z</time>
      </trkpt>
      <trkpt lat="45.37739" lon="7.08427">
        <ele>1968</ele>
        <time>2018-03-14T13:01:48Z</time>
      </trkpt>
      <trkpt lat="45.37727" lon="7.08412">
        <ele>1963</ele>
        <time>2018-03-14T13:02:00Z</time>
      </trkpt>
      <trkpt lat="45.37703" lon="7.08387">
        <ele>1964</ele>
        <time>2018-03-14T13:02:24Z</time>
      </trkpt>
      <trkpt lat="45.37683" lon="7.08355">
        <ele>1961</ele>
        <time>2018-03-14T13:02:45Z</time>
      </trkpt>
      <trkpt lat="45.37681" lon="7.08352">
        <ele>1960</ele>
        <time>2018-03-14T13:02:48Z</time>
      </trkpt>
      <trkpt lat="45.37676" lon="7.08343">
        <ele>1959</ele>
        <time>2018-03-14T13:02:55Z</time>
      </trkpt>
      <trkpt lat="45.37669" lon="7.08329">
        <ele>1956</ele>
        <time>2018-03-14T13:03:04Z</time>
      </trkpt>
      <trkpt lat="45.37668" lon="7.08326">
        <ele>1956</ele>
        <time>2018-03-14T13:03:06Z</time>
      </trkpt>
      <trkpt lat="45.37662" lon="7.08314">
        <ele>1959</ele>
        <time>2018-03-14T13:03:13Z</time>
      </trkpt>
      <trkpt lat="45.37657" lon="7.08304">
        <ele>1960</ele>
        <time>2018-03-14T13:03:19Z</time>
      </trkpt>
      <trkpt lat="45.37653" lon="7.08296">
        <ele>1960</ele>
        <time>2018-03-14T13:03:24Z</time>
      </trkpt>
      <trkpt lat="45.37652" lon="7.08291">
        <ele>1959</ele>
        <time>2018-03-14T13:03:27Z</time>
      </trkpt>
      <trkpt lat="45.37648" lon="7.08275">
        <ele>1958</ele>
        <time>2018-03-14T13:03:35Z</time>
      </trkpt>
      <trkpt lat="45.37646" lon="7.08266">
        <ele>1957</ele>
        <time>2018-03-14T13:03:40Z</time>
      </trkpt>
      <trkpt lat="45.37639" lon="7.0825">
        <ele>1952</ele>
        <time>2018-03-14T13:03:50Z</time>
      </trkpt>
      <trkpt lat="45.37636" lon="7.08244">
        <ele>1952</ele>
        <time>2018-03-14T13:03:54Z</time>
      </trkpt>
      <trkpt lat="45.37631" lon="7.08229">
        <ele>1952</ele>
        <time>2018-03-14T13:04:03Z</time>
      </trkpt>
      <trkpt lat="45.37625" lon="7.08217">
        <ele>1952</ele>
        <time>2018-03-14T13:04:11Z</time>
      </trkpt>
      <trkpt lat="45.37621" lon="7.08209">
        <ele>1952</ele>
        <time>2018-03-14T13:04:18Z</time>
      </trkpt>
      <trkpt lat="45.37615" lon="7.08196">
        <ele>1951</ele>
        <time>2018-03-14T13:04:26Z</time>
      </trkpt>
      <trkpt lat="45.37607" lon="7.08163">
        <ele>1943</ele>
        <time>2018-03-14T13:04:47Z</time>
      </trkpt>
      <trkpt lat="45.37605" lon="7.08151">
        <ele>1943</ele>
        <time>2018-03-14T13:04:54Z</time>
      </trkpt>
      <trkpt lat="45.37596" lon="7.08116">
        <ele>1939</ele>
        <time>2018-03-14T13:05:14Z</time>
      </trkpt>
      <trkpt lat="45.37596" lon="7.08105">
        <ele>1938</ele>
        <time>2018-03-14T13:05:33Z</time>
      </trkpt>
      <trkpt lat="45.37595" lon="7.08103">
        <ele>1938</ele>
        <time>2018-03-14T13:06:13Z</time>
      </trkpt>
      <trkpt lat="45.37593" lon="7.08099">
        <ele>1937</ele>
        <time>2018-03-14T13:06:17Z</time>
      </trkpt>
      <trkpt lat="45.37587" lon="7.08075">
        <ele>1933</ele>
        <time>2018-03-14T13:06:31Z</time>
      </trkpt>
      <trkpt lat="45.37582" lon="7.08062">
        <ele>1936</ele>
        <time>2018-03-14T13:06:54Z</time>
      </trkpt>
      <trkpt lat="45.37579" lon="7.08045">
        <ele>1935</ele>
        <time>2018-03-14T13:07:04Z</time>
      </trkpt>
      <trkpt lat="45.37575" lon="7.08033">
        <ele>1934</ele>
        <time>2018-03-14T13:07:12Z</time>
      </trkpt>
      <trkpt lat="45.37574" lon="7.08026">
        <ele>1933</ele>
        <time>2018-03-14T13:07:27Z</time>
      </trkpt>
      <trkpt lat="45.37569" lon="7.0801">
        <ele>1932</ele>
        <time>2018-03-14T13:07:40Z</time>
      </trkpt>
      <trkpt lat="45.37567" lon="7.08003">
        <ele>1931</ele>
        <time>2018-03-14T13:07:44Z</time>
      </trkpt>
      <trkpt lat="45.37565" lon="7.07992">
        <ele>1925</ele>
        <time>2018-03-14T13:07:50Z</time>
      </trkpt>
      <trkpt lat="45.3756" lon="7.07968">
        <ele>1924</ele>
        <time>2018-03-14T13:08:07Z</time>
      </trkpt>
      <trkpt lat="45.3756" lon="7.07967">
        <ele>1924</ele>
        <time>2018-03-14T13:08:08Z</time>
      </trkpt>
      <trkpt lat="45.37553" lon="7.07935">
        <ele>1922</ele>
        <time>2018-03-14T13:08:26Z</time>
      </trkpt>
      <trkpt lat="45.37537" lon="7.07909">
        <ele>1915</ele>
        <time>2018-03-14T13:08:46Z</time>
      </trkpt>
      <trkpt lat="45.37526" lon="7.07893">
        <ele>1915</ele>
        <time>2018-03-14T13:08:59Z</time>
      </trkpt>
      <trkpt lat="45.37523" lon="7.0789">
        <ele>1915</ele>
        <time>2018-03-14T13:09:02Z</time>
      </trkpt>
      <trkpt lat="45.37521" lon="7.07883">
        <ele>1915</ele>
        <time>2018-03-14T13:09:06Z</time>
      </trkpt>
      <trkpt lat="45.37516" lon="7.07872">
        <ele>1914</ele>
        <time>2018-03-14T13:09:12Z</time>
      </trkpt>
      <trkpt lat="45.37509" lon="7.07843">
        <ele>1913</ele>
        <time>2018-03-14T13:09:30Z</time>
      </trkpt>
      <trkpt lat="45.37503" lon="7.07822">
        <ele>1910</ele>
        <time>2018-03-14T13:09:41Z</time>
      </trkpt>
      <trkpt lat="45.37501" lon="7.07813">
        <ele>1908</ele>
        <time>2018-03-14T13:09:46Z</time>
      </trkpt>
      <trkpt lat="45.37501" lon="7.07803">
        <ele>1906</ele>
        <time>2018-03-14T13:09:51Z</time>
      </trkpt>
      <trkpt lat="45.37498" lon="7.07787">
        <ele>1912</ele>
        <time>2018-03-14T13:10:00Z</time>
      </trkpt>
      <trkpt lat="45.37496" lon="7.07768">
        <ele>1909</ele>
        <time>2018-03-14T13:10:10Z</time>
      </trkpt>
      <trkpt lat="45.37491" lon="7.07739">
        <ele>1903</ele>
        <time>2018-03-14T13:10:27Z</time>
      </trkpt>
      <trkpt lat="45.37487" lon="7.07725">
        <ele>1902</ele>
        <time>2018-03-14T13:10:36Z</time>
      </trkpt>
      <trkpt lat="45.37481" lon="7.07706">
        <ele>1901</ele>
        <time>2018-03-14T13:10:50Z</time>
      </trkpt>
      <trkpt lat="45.3747" lon="7.07673">
        <ele>1898</ele>
        <time>2018-03-14T13:11:08Z</time>
      </trkpt>
      <trkpt lat="45.37459" lon="7.07645">
        <ele>1891</ele>
        <time>2018-03-14T13:11:26Z</time>
      </trkpt>
      <trkpt lat="45.37457" lon="7.07642">
        <ele>1891</ele>
        <time>2018-03-14T13:11:53Z</time>
      </trkpt>
      <trkpt lat="45.37453" lon="7.07638">
        <ele>1891</ele>
        <time>2018-03-14T13:12:09Z</time>
      </trkpt>
      <trkpt lat="45.37451" lon="7.07637">
        <ele>1891</ele>
        <time>2018-03-14T13:12:51Z</time>
      </trkpt>
      <trkpt lat="45.37454" lon="7.07637">
        <ele>1891</ele>
        <time>2018-03-14T13:13:29Z</time>
      </trkpt>
      <trkpt lat="45.37452" lon="7.07638">
        <ele>1891</ele>
        <time>2018-03-14T13:14:29Z</time>
      </trkpt>
      <trkpt lat="45.37454" lon="7.0764">
        <ele>1891</ele>
        <time>2018-03-14T13:15:14Z</time>
      </trkpt>
      <trkpt lat="45.37455" lon="7.0764">
        <ele>1891</ele>
        <time>2018-03-14T13:16:05Z</time>
      </trkpt>
      <trkpt lat="45.37457" lon="7.0764">
        <ele>1891</ele>
        <time>2018-03-14T13:16:45Z</time>
      </trkpt>
      <trkpt lat="45.37454" lon="7.07635">
        <ele>1891</ele>
        <time>2018-03-14T13:17:14Z</time>
      </trkpt>
      <trkpt lat="45.37455" lon="7.07633">
        <ele>1890</ele>
        <time>2018-03-14T13:17:51Z</time>
      </trkpt>
      <trkpt lat="45.37452" lon="7.07632">
        <ele>1890</ele>
        <time>2018-03-14T13:18:29Z</time>
      </trkpt>
      <trkpt lat="45.37451" lon="7.0763">
        <ele>1890</ele>
        <time>2018-03-14T13:19:04Z</time>
      </trkpt>
      <trkpt lat="45.37453" lon="7.0763">
        <ele>1890</ele>
        <time>2018-03-14T13:19:30Z</time>
      </trkpt>
      <trkpt lat="45.37454" lon="7.07632">
        <ele>1890</ele>
        <time>2018-03-14T13:20:15Z</time>
      </trkpt>
      <trkpt lat="45.37454" lon="7.07631">
        <ele>1890</ele>
        <time>2018-03-14T13:20:51Z</time>
      </trkpt>
      <trkpt lat="45.37457" lon="7.07628">
        <ele>1890</ele>
        <time>2018-03-14T13:23:12Z</time>
      </trkpt>
      <trkpt lat="45.37455" lon="7.07615">
        <ele>1889</ele>
        <time>2018-03-14T13:23:19Z</time>
      </trkpt>
      <trkpt lat="45.37451" lon="7.07599">
        <ele>1888</ele>
        <time>2018-03-14T13:23:28Z</time>
      </trkpt>
      <trkpt lat="45.37447" lon="7.07586">
        <ele>1888</ele>
        <time>2018-03-14T13:23:36Z</time>
      </trkpt>
      <trkpt lat="45.37445" lon="7.07578">
        <ele>1882</ele>
        <time>2018-03-14T13:23:40Z</time>
      </trkpt>
      <trkpt lat="45.37438" lon="7.07545">
        <ele>1880</ele>
        <time>2018-03-14T13:23:58Z</time>
      </trkpt>
      <trkpt lat="45.37432" lon="7.07518">
        <ele>1878</ele>
        <time>2018-03-14T13:24:14Z</time>
      </trkpt>
      <trkpt lat="45.37431" lon="7.07515">
        <ele>1878</ele>
        <time>2018-03-14T13:24:16Z</time>
      </trkpt>
      <trkpt lat="45.37425" lon="7.07487">
        <ele>1874</ele>
        <time>2018-03-14T13:24:33Z</time>
      </trkpt>
      <trkpt lat="45.37422" lon="7.07477">
        <ele>1874</ele>
        <time>2018-03-14T13:24:40Z</time>
      </trkpt>
      <trkpt lat="45.37415" lon="7.07446">
        <ele>1878</ele>
        <time>2018-03-14T13:24:59Z</time>
      </trkpt>
      <trkpt lat="45.37409" lon="7.07422">
        <ele>1875</ele>
        <time>2018-03-14T13:25:15Z</time>
      </trkpt>
      <trkpt lat="45.37409" lon="7.0742">
        <ele>1875</ele>
        <time>2018-03-14T13:25:16Z</time>
      </trkpt>
      <trkpt lat="45.37399" lon="7.07392">
        <ele>1874</ele>
        <time>2018-03-14T13:25:34Z</time>
      </trkpt>
      <trkpt lat="45.37398" lon="7.07389">
        <ele>1874</ele>
        <time>2018-03-14T13:25:36Z</time>
      </trkpt>
      <trkpt lat="45.3739" lon="7.0736">
        <ele>1873</ele>
        <time>2018-03-14T13:25:54Z</time>
      </trkpt>
      <trkpt lat="45.37388" lon="7.07354">
        <ele>1873</ele>
        <time>2018-03-14T13:25:58Z</time>
      </trkpt>
      <trkpt lat="45.37383" lon="7.07327">
        <ele>1869</ele>
        <time>2018-03-14T13:26:15Z</time>
      </trkpt>
      <trkpt lat="45.37382" lon="7.07325">
        <ele>1869</ele>
        <time>2018-03-14T13:26:16Z</time>
      </trkpt>
      <trkpt lat="45.37373" lon="7.07298">
        <ele>1869</ele>
        <time>2018-03-14T13:26:33Z</time>
      </trkpt>
      <trkpt lat="45.37367" lon="7.07269">
        <ele>1869</ele>
        <time>2018-03-14T13:26:50Z</time>
      </trkpt>
      <trkpt lat="45.37362" lon="7.07253">
        <ele>1869</ele>
        <time>2018-03-14T13:27:20Z</time>
      </trkpt>
      <trkpt lat="45.37354" lon="7.07229">
        <ele>1869</ele>
        <time>2018-03-14T13:27:37Z</time>
      </trkpt>
      <trkpt lat="45.37348" lon="7.07204">
        <ele>1868</ele>
        <time>2018-03-14T13:27:56Z</time>
      </trkpt>
      <trkpt lat="45.37339" lon="7.07173">
        <ele>1869</ele>
        <time>2018-03-14T13:28:15Z</time>
      </trkpt>
      <trkpt lat="45.37335" lon="7.07147">
        <ele>1868</ele>
        <time>2018-03-14T13:28:31Z</time>
      </trkpt>
      <trkpt lat="45.37335" lon="7.0712">
        <ele>1868</ele>
        <time>2018-03-14T13:28:50Z</time>
      </trkpt>
      <trkpt lat="45.37336" lon="7.07104">
        <ele>1868</ele>
        <time>2018-03-14T13:29:05Z</time>
      </trkpt>
      <trkpt lat="45.37338" lon="7.07075">
        <ele>1868</ele>
        <time>2018-03-14T13:29:20Z</time>
      </trkpt>
      <trkpt lat="45.37343" lon="7.07051">
        <ele>1868</ele>
        <time>2018-03-14T13:29:37Z</time>
      </trkpt>
      <trkpt lat="45.37348" lon="7.07033">
        <ele>1868</ele>
        <time>2018-03-14T13:29:53Z</time>
      </trkpt>
      <trkpt lat="45.3735" lon="7.07022">
        <ele>1868</ele>
        <time>2018-03-14T13:29:59Z</time>
      </trkpt>
      <trkpt lat="45.3735" lon="7.07008">
        <ele>1869</ele>
        <time>2018-03-14T13:30:16Z</time>
      </trkpt>
      <trkpt lat="45.3735" lon="7.07003">
        <ele>1869</ele>
        <time>2018-03-14T13:30:19Z</time>
      </trkpt>
      <trkpt lat="45.37349" lon="7.06994">
        <ele>1869</ele>
        <time>2018-03-14T13:30:23Z</time>
      </trkpt>
      <trkpt lat="45.37347" lon="7.06964">
        <ele>1867</ele>
        <time>2018-03-14T13:30:38Z</time>
      </trkpt>
      <trkpt lat="45.37339" lon="7.06934">
        <ele>1866</ele>
        <time>2018-03-14T13:30:54Z</time>
      </trkpt>
      <trkpt lat="45.3733" lon="7.06903">
        <ele>1870</ele>
        <time>2018-03-14T13:31:11Z</time>
      </trkpt>
      <trkpt lat="45.3733" lon="7.069">
        <ele>1870</ele>
        <time>2018-03-14T13:31:13Z</time>
      </trkpt>
      <trkpt lat="45.37325" lon="7.06866">
        <ele>1872</ele>
        <time>2018-03-14T13:31:31Z</time>
      </trkpt>
      <trkpt lat="45.37325" lon="7.06839">
        <ele>1868</ele>
        <time>2018-03-14T13:31:49Z</time>
      </trkpt>
      <trkpt lat="45.37325" lon="7.06838">
        <ele>1868</ele>
        <time>2018-03-14T13:31:50Z</time>
      </trkpt>
      <trkpt lat="45.37324" lon="7.06828">
        <ele>1867</ele>
        <time>2018-03-14T13:31:55Z</time>
      </trkpt>
      <trkpt lat="45.37324" lon="7.0682">
        <ele>1868</ele>
        <time>2018-03-14T13:31:59Z</time>
      </trkpt>
      <trkpt lat="45.37323" lon="7.06803">
        <ele>1870</ele>
        <time>2018-03-14T13:32:08Z</time>
      </trkpt>
      <trkpt lat="45.37322" lon="7.06796">
        <ele>1870</ele>
        <time>2018-03-14T13:32:12Z</time>
      </trkpt>
      <trkpt lat="45.37321" lon="7.06773">
        <ele>1869</ele>
        <time>2018-03-14T13:32:27Z</time>
      </trkpt>
      <trkpt lat="45.37321" lon="7.06742">
        <ele>1865</ele>
        <time>2018-03-14T13:32:41Z</time>
      </trkpt>
      <trkpt lat="45.37323" lon="7.06705">
        <ele>1866</ele>
        <time>2018-03-14T13:32:58Z</time>
      </trkpt>
      <trkpt lat="45.37327" lon="7.06673">
        <ele>1861</ele>
        <time>2018-03-14T13:33:17Z</time>
      </trkpt>
      <trkpt lat="45.37327" lon="7.06659">
        <ele>1860</ele>
        <time>2018-03-14T13:33:25Z</time>
      </trkpt>
      <trkpt lat="45.37331" lon="7.06648">
        <ele>1860</ele>
        <time>2018-03-14T13:33:32Z</time>
      </trkpt>
      <trkpt lat="45.37329" lon="7.06625">
        <ele>1860</ele>
        <time>2018-03-14T13:33:44Z</time>
      </trkpt>
      <trkpt lat="45.37325" lon="7.06595">
        <ele>1856</ele>
        <time>2018-03-14T13:34:00Z</time>
      </trkpt>
      <trkpt lat="45.37322" lon="7.0658">
        <ele>1853</ele>
        <time>2018-03-14T13:34:08Z</time>
      </trkpt>
      <trkpt lat="45.37312" lon="7.06549">
        <ele>1856</ele>
        <time>2018-03-14T13:34:23Z</time>
      </trkpt>
      <trkpt lat="45.37311" lon="7.06547">
        <ele>1856</ele>
        <time>2018-03-14T13:34:24Z</time>
      </trkpt>
      <trkpt lat="45.37306" lon="7.06516">
        <ele>1855</ele>
        <time>2018-03-14T13:34:40Z</time>
      </trkpt>
      <trkpt lat="45.3731" lon="7.06489">
        <ele>1851</ele>
        <time>2018-03-14T13:34:56Z</time>
      </trkpt>
      <trkpt lat="45.37312" lon="7.06473">
        <ele>1852</ele>
        <time>2018-03-14T13:35:04Z</time>
      </trkpt>
      <trkpt lat="45.37313" lon="7.06464">
        <ele>1852</ele>
        <time>2018-03-14T13:35:09Z</time>
      </trkpt>
      <trkpt lat="45.37314" lon="7.06461">
        <ele>1852</ele>
        <time>2018-03-14T13:35:11Z</time>
      </trkpt>
      <trkpt lat="45.37316" lon="7.06457">
        <ele>1852</ele>
        <time>2018-03-14T13:35:14Z</time>
      </trkpt>
      <trkpt lat="45.37321" lon="7.06428">
        <ele>1848</ele>
        <time>2018-03-14T13:35:33Z</time>
      </trkpt>
      <trkpt lat="45.37321" lon="7.06399">
        <ele>1849</ele>
        <time>2018-03-14T13:35:48Z</time>
      </trkpt>
      <trkpt lat="45.37327" lon="7.06364">
        <ele>1850</ele>
        <time>2018-03-14T13:36:07Z</time>
      </trkpt>
      <trkpt lat="45.37333" lon="7.06335">
        <ele>1842</ele>
        <time>2018-03-14T13:36:24Z</time>
      </trkpt>
      <trkpt lat="45.37338" lon="7.06308">
        <ele>1839</ele>
        <time>2018-03-14T13:36:42Z</time>
      </trkpt>
      <trkpt lat="45.37338" lon="7.06293">
        <ele>1839</ele>
        <time>2018-03-14T13:36:50Z</time>
      </trkpt>
      <trkpt lat="45.37338" lon="7.06288">
        <ele>1839</ele>
        <time>2018-03-14T13:36:53Z</time>
      </trkpt>
      <trkpt lat="45.3734" lon="7.06286">
        <ele>1839</ele>
        <time>2018-03-14T13:36:55Z</time>
      </trkpt>
      <trkpt lat="45.37343" lon="7.06262">
        <ele>1839</ele>
        <time>2018-03-14T13:37:09Z</time>
      </trkpt>
      <trkpt lat="45.37343" lon="7.06246">
        <ele>1839</ele>
        <time>2018-03-14T13:37:17Z</time>
      </trkpt>
      <trkpt lat="45.37349" lon="7.06204">
        <ele>1838</ele>
        <time>2018-03-14T13:37:40Z</time>
      </trkpt>
      <trkpt lat="45.37351" lon="7.0619">
        <ele>1839</ele>
        <time>2018-03-14T13:37:48Z</time>
      </trkpt>
      <trkpt lat="45.37357" lon="7.06159">
        <ele>1840</ele>
        <time>2018-03-14T13:38:09Z</time>
      </trkpt>
      <trkpt lat="45.37366" lon="7.06135">
        <ele>1839</ele>
        <time>2018-03-14T13:38:26Z</time>
      </trkpt>
      <trkpt lat="45.37378" lon="7.06105">
        <ele>1838</ele>
        <time>2018-03-14T13:38:45Z</time>
      </trkpt>
      <trkpt lat="45.37387" lon="7.06068">
        <ele>1837</ele>
        <time>2018-03-14T13:39:08Z</time>
      </trkpt>
      <trkpt lat="45.37388" lon="7.06053">
        <ele>1837</ele>
        <time>2018-03-14T13:39:18Z</time>
      </trkpt>
      <trkpt lat="45.37385" lon="7.06044">
        <ele>1838</ele>
        <time>2018-03-14T13:39:23Z</time>
      </trkpt>
      <trkpt lat="45.37383" lon="7.06035">
        <ele>1838</ele>
        <time>2018-03-14T13:39:28Z</time>
      </trkpt>
      <trkpt lat="45.37382" lon="7.06029">
        <ele>1838</ele>
        <time>2018-03-14T13:39:31Z</time>
      </trkpt>
      <trkpt lat="45.37382" lon="7.06003">
        <ele>1837</ele>
        <time>2018-03-14T13:39:47Z</time>
      </trkpt>
      <trkpt lat="45.37383" lon="7.05996">
        <ele>1837</ele>
        <time>2018-03-14T13:39:54Z</time>
      </trkpt>
      <trkpt lat="45.37383" lon="7.05994">
        <ele>1837</ele>
        <time>2018-03-14T13:39:55Z</time>
      </trkpt>
      <trkpt lat="45.37383" lon="7.05985">
        <ele>1837</ele>
        <time>2018-03-14T13:40:00Z</time>
      </trkpt>
      <trkpt lat="45.37386" lon="7.05963">
        <ele>1837</ele>
        <time>2018-03-14T13:40:11Z</time>
      </trkpt>
      <trkpt lat="45.37385" lon="7.05945">
        <ele>1837</ele>
        <time>2018-03-14T13:40:21Z</time>
      </trkpt>
      <trkpt lat="45.37395" lon="7.05915">
        <ele>1835</ele>
        <time>2018-03-14T13:40:40Z</time>
      </trkpt>
      <trkpt lat="45.37399" lon="7.05899">
        <ele>1835</ele>
        <time>2018-03-14T13:40:48Z</time>
      </trkpt>
      <trkpt lat="45.37403" lon="7.0587">
        <ele>1835</ele>
        <time>2018-03-14T13:41:04Z</time>
      </trkpt>
      <trkpt lat="45.37403" lon="7.05867">
        <ele>1835</ele>
        <time>2018-03-14T13:41:06Z</time>
      </trkpt>
      <trkpt lat="45.37402" lon="7.05846">
        <ele>1833</ele>
        <time>2018-03-14T13:41:19Z</time>
      </trkpt>
      <trkpt lat="45.37402" lon="7.05836">
        <ele>1832</ele>
        <time>2018-03-14T13:41:23Z</time>
      </trkpt>
      <trkpt lat="45.37402" lon="7.05832">
        <ele>1830</ele>
        <time>2018-03-14T13:41:25Z</time>
      </trkpt>
      <trkpt lat="45.37402" lon="7.05821">
        <ele>1831</ele>
        <time>2018-03-14T13:41:30Z</time>
      </trkpt>
      <trkpt lat="45.37403" lon="7.05805">
        <ele>1831</ele>
        <time>2018-03-14T13:41:38Z</time>
      </trkpt>
      <trkpt lat="45.37404" lon="7.05793">
        <ele>1831</ele>
        <time>2018-03-14T13:41:44Z</time>
      </trkpt>
      <trkpt lat="45.37412" lon="7.05774">
        <ele>1829</ele>
        <time>2018-03-14T13:42:04Z</time>
      </trkpt>
      <trkpt lat="45.3741" lon="7.05765">
        <ele>1828</ele>
        <time>2018-03-14T13:42:20Z</time>
      </trkpt>
      <trkpt lat="45.37408" lon="7.05758">
        <ele>1827</ele>
        <time>2018-03-14T13:42:27Z</time>
      </trkpt>
      <trkpt lat="45.37405" lon="7.0574">
        <ele>1826</ele>
        <time>2018-03-14T13:42:42Z</time>
      </trkpt>
      <trkpt lat="45.374" lon="7.05717">
        <ele>1827</ele>
        <time>2018-03-14T13:43:00Z</time>
      </trkpt>
      <trkpt lat="45.37398" lon="7.05715">
        <ele>1827</ele>
        <time>2018-03-14T13:43:21Z</time>
      </trkpt>
      <trkpt lat="45.37397" lon="7.05713">
        <ele>1827</ele>
        <time>2018-03-14T13:43:53Z</time>
      </trkpt>
      <trkpt lat="45.37396" lon="7.05711">
        <ele>1827</ele>
        <time>2018-03-14T13:45:16Z</time>
      </trkpt>
      <trkpt lat="45.37396" lon="7.05711">
        <ele>1827</ele>
        <time>2018-03-14T13:45:54Z</time>
      </trkpt>
      <trkpt lat="45.37386" lon="7.05703">
        <ele>1828</ele>
        <time>2018-03-14T13:46:24Z</time>
      </trkpt>
      <trkpt lat="45.37377" lon="7.05679">
        <ele>1828</ele>
        <time>2018-03-14T13:46:39Z</time>
      </trkpt>
      <trkpt lat="45.37375" lon="7.05672">
        <ele>1828</ele>
        <time>2018-03-14T13:46:43Z</time>
      </trkpt>
      <trkpt lat="45.37372" lon="7.05657">
        <ele>1824</ele>
        <time>2018-03-14T13:46:53Z</time>
      </trkpt>
      <trkpt lat="45.37372" lon="7.05642">
        <ele>1824</ele>
        <time>2018-03-14T13:47:03Z</time>
      </trkpt>
      <trkpt lat="45.3737" lon="7.05628">
        <ele>1823</ele>
        <time>2018-03-14T13:47:13Z</time>
      </trkpt>
      <trkpt lat="45.37368" lon="7.05602">
        <ele>1822</ele>
        <time>2018-03-14T13:47:32Z</time>
      </trkpt>
      <trkpt lat="45.37378" lon="7.05612">
        <ele>1822</ele>
        <time>2018-03-14T13:47:54Z</time>
      </trkpt>
      <trkpt lat="45.37374" lon="7.05624">
        <ele>1823</ele>
        <time>2018-03-14T13:48:35Z</time>
      </trkpt>
      <trkpt lat="45.37374" lon="7.05623">
        <ele>1823</ele>
        <time>2018-03-14T13:49:19Z</time>
      </trkpt>
      <trkpt lat="45.37375" lon="7.05606">
        <ele>1822</ele>
        <time>2018-03-14T13:49:41Z</time>
      </trkpt>
      <trkpt lat="45.3737" lon="7.05587">
        <ele>1822</ele>
        <time>2018-03-14T13:49:59Z</time>
      </trkpt>
      <trkpt lat="45.37371" lon="7.05586">
        <ele>1822</ele>
        <time>2018-03-14T13:50:01Z</time>
      </trkpt>
      <trkpt lat="45.37362" lon="7.0555">
        <ele>1817</ele>
        <time>2018-03-14T13:50:18Z</time>
      </trkpt>
      <trkpt lat="45.37359" lon="7.05544">
        <ele>1817</ele>
        <time>2018-03-14T13:50:22Z</time>
      </trkpt>
      <trkpt lat="45.37288" lon="7.05392">
        <ele>1805</ele>
      </trkpt>
      <trkpt lat="45.37325" lon="7.05349">
        <ele>1805</ele>
        <time>2018-03-14T13:53:04Z</time>
      </trkpt>
      <trkpt lat="45.37311" lon="7.05343">
        <ele>1805</ele>
        <time>2018-03-14T13:53:21Z</time>
      </trkpt>
      <trkpt lat="45.37311" lon="7.05302">
        <ele>1802</ele>
        <time>2018-03-14T13:54:04Z</time>
      </trkpt>
      <trkpt lat="45.3732" lon="7.05288">
        <ele>1802</ele>
        <time>2018-03-14T13:54:10Z</time>
      </trkpt>
      <trkpt lat="45.37334" lon="7.05267">
        <ele>1807</ele>
        <time>2018-03-14T13:54:17Z</time>
      </trkpt>
      <trkpt lat="45.37281" lon="7.05162">
        <ele>1797</ele>
      </trkpt>
      <trkpt lat="45.37224" lon="7.05053">
        <ele>1793</ele>
      </trkpt>
      <trkpt lat="45.37214" lon="7.05016">
        <ele>1793</ele>
      </trkpt>
      <trkpt lat="45.37207" lon="7.04996">
        <ele>1792</ele>
      </trkpt>
      <trkpt lat="45.37193" lon="7.04981">
        <ele>1792</ele>
      </trkpt>
      <trkpt lat="45.3721" lon="7.04969">
        <ele>1793</ele>
      </trkpt>
    </trkseg>
  </trk>
</gpx>